<gpx creator="Cyclotour.ca" version="1.1" xmlns:gpsies="http://www.gpsies.com/GPX/1/0" xmlns:xsi="http://www.w3.org/2001/XMLSchema-instance" xmlns="http://www.topografix.com/GPX/1/1" xsi:schemaLocation="http://www.topografix.com/GPX/1/1 http://www.topografix.com/GPX/1/1/gpx.xsd http://www.gpsies.com/GPX/1/0 http://www.gpsies.com/gpsies.xsd">
<trk>
<name>Deschaillons - St-Édouard-de-Lotbinière</name>
<trkseg>
<trkpt lat="46.556080000" lon="-72.116080000">
<ele>0</ele>
<time>2026-09-04T06:34:32Z</time>
</trkpt>
<trkpt lat="46.556300000" lon="-72.115470000">
<ele>0</ele>
<time>2026-09-04T06:34:33Z</time>
</trkpt>
<trkpt lat="46.556430000" lon="-72.115200000">
<ele>0</ele>
<time>2026-09-04T06:34:34Z</time>
</trkpt>
<trkpt lat="46.556970000" lon="-72.114340000">
<ele>0</ele>
<time>2026-09-04T06:34:35Z</time>
</trkpt>
<trkpt lat="46.557310000" lon="-72.113820000">
<ele>0</ele>
<time>2026-09-04T06:34:36Z</time>
</trkpt>
<trkpt lat="46.557570000" lon="-72.113510000">
<ele>0</ele>
<time>2026-09-04T06:34:37Z</time>
</trkpt>
<trkpt lat="46.557800000" lon="-72.113190000">
<ele>0</ele>
<time>2026-09-04T06:34:38Z</time>
</trkpt>
<trkpt lat="46.557910000" lon="-72.113010000">
<ele>0</ele>
<time>2026-09-04T06:34:39Z</time>
</trkpt>
<trkpt lat="46.558040000" lon="-72.112730000">
<ele>0</ele>
<time>2026-09-04T06:34:40Z</time>
</trkpt>
<trkpt lat="46.558220000" lon="-72.112180000">
<ele>0</ele>
<time>2026-09-04T06:34:41Z</time>
</trkpt>
<trkpt lat="46.558330000" lon="-72.111680000">
<ele>0</ele>
<time>2026-09-04T06:34:42Z</time>
</trkpt>
<trkpt lat="46.558510000" lon="-72.110540000">
<ele>0</ele>
<time>2026-09-04T06:34:43Z</time>
</trkpt>
<trkpt lat="46.558860000" lon="-72.108730000">
<ele>0</ele>
<time>2026-09-04T06:34:44Z</time>
</trkpt>
<trkpt lat="46.558980000" lon="-72.108180000">
<ele>0</ele>
<time>2026-09-04T06:34:45Z</time>
</trkpt>
<trkpt lat="46.559100000" lon="-72.107750000">
<ele>0</ele>
<time>2026-09-04T06:34:46Z</time>
</trkpt>
<trkpt lat="46.559200000" lon="-72.107350000">
<ele>0</ele>
<time>2026-09-04T06:34:47Z</time>
</trkpt>
<trkpt lat="46.559230000" lon="-72.107140000">
<ele>0</ele>
<time>2026-09-04T06:34:48Z</time>
</trkpt>
<trkpt lat="46.559260000" lon="-72.106730000">
<ele>0</ele>
<time>2026-09-04T06:34:49Z</time>
</trkpt>
<trkpt lat="46.559280000" lon="-72.106310000">
<ele>0</ele>
<time>2026-09-04T06:34:50Z</time>
</trkpt>
<trkpt lat="46.559270000" lon="-72.105950000">
<ele>0</ele>
<time>2026-09-04T06:34:51Z</time>
</trkpt>
<trkpt lat="46.559190000" lon="-72.105440000">
<ele>0</ele>
<time>2026-09-04T06:34:52Z</time>
</trkpt>
<trkpt lat="46.558990000" lon="-72.104630000">
<ele>0</ele>
<time>2026-09-04T06:34:53Z</time>
</trkpt>
<trkpt lat="46.558900000" lon="-72.104170000">
<ele>0</ele>
<time>2026-09-04T06:34:54Z</time>
</trkpt>
<trkpt lat="46.558900000" lon="-72.104170000">
<ele>0</ele>
<time>2026-09-04T06:34:55Z</time>
</trkpt>
<trkpt lat="46.558780000" lon="-72.103430000">
<ele>0</ele>
<time>2026-09-04T06:34:56Z</time>
</trkpt>
<trkpt lat="46.558610000" lon="-72.102110000">
<ele>0</ele>
<time>2026-09-04T06:34:57Z</time>
</trkpt>
<trkpt lat="46.558520000" lon="-72.101130000">
<ele>0</ele>
<time>2026-09-04T06:34:58Z</time>
</trkpt>
<trkpt lat="46.558460000" lon="-72.100540000">
<ele>0</ele>
<time>2026-09-04T06:34:59Z</time>
</trkpt>
<trkpt lat="46.558390000" lon="-72.100100000">
<ele>0</ele>
<time>2026-09-04T06:35:00Z</time>
</trkpt>
<trkpt lat="46.558290000" lon="-72.099610000">
<ele>0</ele>
<time>2026-09-04T06:35:01Z</time>
</trkpt>
<trkpt lat="46.558080000" lon="-72.098740000">
<ele>0</ele>
<time>2026-09-04T06:35:02Z</time>
</trkpt>
<trkpt lat="46.557280000" lon="-72.096250000">
<ele>0</ele>
<time>2026-09-04T06:35:03Z</time>
</trkpt>
<trkpt lat="46.557010000" lon="-72.095290000">
<ele>0</ele>
<time>2026-09-04T06:35:04Z</time>
</trkpt>
<trkpt lat="46.556850000" lon="-72.094520000">
<ele>0</ele>
<time>2026-09-04T06:35:05Z</time>
</trkpt>
<trkpt lat="46.556790000" lon="-72.094020000">
<ele>0</ele>
<time>2026-09-04T06:35:06Z</time>
</trkpt>
<trkpt lat="46.556710000" lon="-72.093460000">
<ele>0</ele>
<time>2026-09-04T06:35:07Z</time>
</trkpt>
<trkpt lat="46.556650000" lon="-72.092990000">
<ele>0</ele>
<time>2026-09-04T06:35:08Z</time>
</trkpt>
<trkpt lat="46.556590000" lon="-72.091770000">
<ele>0</ele>
<time>2026-09-04T06:35:09Z</time>
</trkpt>
<trkpt lat="46.556550000" lon="-72.090430000">
<ele>0</ele>
<time>2026-09-04T06:35:10Z</time>
</trkpt>
<trkpt lat="46.556550000" lon="-72.090430000">
<ele>0</ele>
<time>2026-09-04T06:35:11Z</time>
</trkpt>
<trkpt lat="46.556500000" lon="-72.088940000">
<ele>0</ele>
<time>2026-09-04T06:35:12Z</time>
</trkpt>
<trkpt lat="46.556450000" lon="-72.088110000">
<ele>0</ele>
<time>2026-09-04T06:35:13Z</time>
</trkpt>
<trkpt lat="46.556320000" lon="-72.086740000">
<ele>0</ele>
<time>2026-09-04T06:35:14Z</time>
</trkpt>
<trkpt lat="46.556290000" lon="-72.086410000">
<ele>0</ele>
<time>2026-09-04T06:35:15Z</time>
</trkpt>
<trkpt lat="46.556220000" lon="-72.085910000">
<ele>0</ele>
<time>2026-09-04T06:35:16Z</time>
</trkpt>
<trkpt lat="46.556060000" lon="-72.085160000">
<ele>0</ele>
<time>2026-09-04T06:35:17Z</time>
</trkpt>
<trkpt lat="46.555780000" lon="-72.083140000">
<ele>0</ele>
<time>2026-09-04T06:35:18Z</time>
</trkpt>
<trkpt lat="46.555740000" lon="-72.082910000">
<ele>0</ele>
<time>2026-09-04T06:35:19Z</time>
</trkpt>
<trkpt lat="46.555470000" lon="-72.081120000">
<ele>0</ele>
<time>2026-09-04T06:35:20Z</time>
</trkpt>
<trkpt lat="46.555260000" lon="-72.079850000">
<ele>0</ele>
<time>2026-09-04T06:35:21Z</time>
</trkpt>
<trkpt lat="46.555220000" lon="-72.079220000">
<ele>0</ele>
<time>2026-09-04T06:35:22Z</time>
</trkpt>
<trkpt lat="46.555220000" lon="-72.078770000">
<ele>0</ele>
<time>2026-09-04T06:35:23Z</time>
</trkpt>
<trkpt lat="46.555260000" lon="-72.078320000">
<ele>0</ele>
<time>2026-09-04T06:35:24Z</time>
</trkpt>
<trkpt lat="46.555330000" lon="-72.077810000">
<ele>0</ele>
<time>2026-09-04T06:35:25Z</time>
</trkpt>
<trkpt lat="46.555450000" lon="-72.077320000">
<ele>0</ele>
<time>2026-09-04T06:35:26Z</time>
</trkpt>
<trkpt lat="46.555890000" lon="-72.076190000">
<ele>0</ele>
<time>2026-09-04T06:35:27Z</time>
</trkpt>
<trkpt lat="46.557470000" lon="-72.072370000">
<ele>0</ele>
<time>2026-09-04T06:35:28Z</time>
</trkpt>
<trkpt lat="46.558390000" lon="-72.070120000">
<ele>0</ele>
<time>2026-09-04T06:35:29Z</time>
</trkpt>
<trkpt lat="46.558540000" lon="-72.069730000">
<ele>0</ele>
<time>2026-09-04T06:35:30Z</time>
</trkpt>
<trkpt lat="46.558710000" lon="-72.069190000">
<ele>0</ele>
<time>2026-09-04T06:35:31Z</time>
</trkpt>
<trkpt lat="46.558810000" lon="-72.068680000">
<ele>0</ele>
<time>2026-09-04T06:35:32Z</time>
</trkpt>
<trkpt lat="46.558880000" lon="-72.068090000">
<ele>0</ele>
<time>2026-09-04T06:35:33Z</time>
</trkpt>
<trkpt lat="46.558890000" lon="-72.067480000">
<ele>0</ele>
<time>2026-09-04T06:35:34Z</time>
</trkpt>
<trkpt lat="46.558790000" lon="-72.066760000">
<ele>0</ele>
<time>2026-09-04T06:35:35Z</time>
</trkpt>
<trkpt lat="46.558300000" lon="-72.064410000">
<ele>0</ele>
<time>2026-09-04T06:35:36Z</time>
</trkpt>
<trkpt lat="46.558150000" lon="-72.063550000">
<ele>0</ele>
<time>2026-09-04T06:35:37Z</time>
</trkpt>
<trkpt lat="46.558090000" lon="-72.062900000">
<ele>0</ele>
<time>2026-09-04T06:35:38Z</time>
</trkpt>
<trkpt lat="46.558080000" lon="-72.062450000">
<ele>0</ele>
<time>2026-09-04T06:35:39Z</time>
</trkpt>
<trkpt lat="46.558090000" lon="-72.062050000">
<ele>0</ele>
<time>2026-09-04T06:35:40Z</time>
</trkpt>
<trkpt lat="46.558170000" lon="-72.061360000">
<ele>0</ele>
<time>2026-09-04T06:35:41Z</time>
</trkpt>
<trkpt lat="46.558500000" lon="-72.059690000">
<ele>0</ele>
<time>2026-09-04T06:35:42Z</time>
</trkpt>
<trkpt lat="46.558920000" lon="-72.057610000">
<ele>0</ele>
<time>2026-09-04T06:35:43Z</time>
</trkpt>
<trkpt lat="46.559120000" lon="-72.056630000">
<ele>0</ele>
<time>2026-09-04T06:35:44Z</time>
</trkpt>
<trkpt lat="46.559290000" lon="-72.055500000">
<ele>0</ele>
<time>2026-09-04T06:35:45Z</time>
</trkpt>
<trkpt lat="46.559920000" lon="-72.050820000">
<ele>0</ele>
<time>2026-09-04T06:35:46Z</time>
</trkpt>
<trkpt lat="46.559980000" lon="-72.050260000">
<ele>0</ele>
<time>2026-09-04T06:35:47Z</time>
</trkpt>
<trkpt lat="46.560020000" lon="-72.049780000">
<ele>0</ele>
<time>2026-09-04T06:35:48Z</time>
</trkpt>
<trkpt lat="46.560030000" lon="-72.049480000">
<ele>0</ele>
<time>2026-09-04T06:35:49Z</time>
</trkpt>
<trkpt lat="46.560020000" lon="-72.048970000">
<ele>0</ele>
<time>2026-09-04T06:35:50Z</time>
</trkpt>
<trkpt lat="46.559970000" lon="-72.048430000">
<ele>0</ele>
<time>2026-09-04T06:35:51Z</time>
</trkpt>
<trkpt lat="46.559820000" lon="-72.047690000">
<ele>0</ele>
<time>2026-09-04T06:35:52Z</time>
</trkpt>
<trkpt lat="46.559620000" lon="-72.046960000">
<ele>0</ele>
<time>2026-09-04T06:35:53Z</time>
</trkpt>
<trkpt lat="46.559400000" lon="-72.046240000">
<ele>0</ele>
<time>2026-09-04T06:35:54Z</time>
</trkpt>
<trkpt lat="46.559280000" lon="-72.045850000">
<ele>0</ele>
<time>2026-09-04T06:35:55Z</time>
</trkpt>
<trkpt lat="46.559280000" lon="-72.045850000">
<ele>0</ele>
<time>2026-09-04T06:35:56Z</time>
</trkpt>
<trkpt lat="46.559100000" lon="-72.045430000">
<ele>0</ele>
<time>2026-09-04T06:35:57Z</time>
</trkpt>
<trkpt lat="46.558880000" lon="-72.045020000">
<ele>0</ele>
<time>2026-09-04T06:35:58Z</time>
</trkpt>
<trkpt lat="46.558570000" lon="-72.044550000">
<ele>0</ele>
<time>2026-09-04T06:35:59Z</time>
</trkpt>
<trkpt lat="46.558250000" lon="-72.044180000">
<ele>0</ele>
<time>2026-09-04T06:36:00Z</time>
</trkpt>
<trkpt lat="46.558030000" lon="-72.043980000">
<ele>0</ele>
<time>2026-09-04T06:36:01Z</time>
</trkpt>
<trkpt lat="46.557610000" lon="-72.043710000">
<ele>0</ele>
<time>2026-09-04T06:36:02Z</time>
</trkpt>
<trkpt lat="46.556450000" lon="-72.043000000">
<ele>0</ele>
<time>2026-09-04T06:36:03Z</time>
</trkpt>
<trkpt lat="46.556280000" lon="-72.042900000">
<ele>0</ele>
<time>2026-09-04T06:36:04Z</time>
</trkpt>
<trkpt lat="46.555960000" lon="-72.042690000">
<ele>0</ele>
<time>2026-09-04T06:36:05Z</time>
</trkpt>
<trkpt lat="46.555630000" lon="-72.042440000">
<ele>0</ele>
<time>2026-09-04T06:36:06Z</time>
</trkpt>
<trkpt lat="46.555480000" lon="-72.042310000">
<ele>0</ele>
<time>2026-09-04T06:36:07Z</time>
</trkpt>
<trkpt lat="46.555290000" lon="-72.042130000">
<ele>0</ele>
<time>2026-09-04T06:36:08Z</time>
</trkpt>
<trkpt lat="46.554910000" lon="-72.041670000">
<ele>0</ele>
<time>2026-09-04T06:36:09Z</time>
</trkpt>
<trkpt lat="46.554500000" lon="-72.041130000">
<ele>0</ele>
<time>2026-09-04T06:36:10Z</time>
</trkpt>
<trkpt lat="46.553080000" lon="-72.039150000">
<ele>0</ele>
<time>2026-09-04T06:36:11Z</time>
</trkpt>
<trkpt lat="46.551220000" lon="-72.036560000">
<ele>0</ele>
<time>2026-09-04T06:36:12Z</time>
</trkpt>
<trkpt lat="46.550870000" lon="-72.036050000">
<ele>0</ele>
<time>2026-09-04T06:36:13Z</time>
</trkpt>
<trkpt lat="46.550710000" lon="-72.035800000">
<ele>0</ele>
<time>2026-09-04T06:36:14Z</time>
</trkpt>
<trkpt lat="46.550450000" lon="-72.035260000">
<ele>0</ele>
<time>2026-09-04T06:36:15Z</time>
</trkpt>
<trkpt lat="46.550290000" lon="-72.034560000">
<ele>0</ele>
<time>2026-09-04T06:36:16Z</time>
</trkpt>
<trkpt lat="46.550240000" lon="-72.034090000">
<ele>0</ele>
<time>2026-09-04T06:36:17Z</time>
</trkpt>
<trkpt lat="46.550240000" lon="-72.033550000">
<ele>0</ele>
<time>2026-09-04T06:36:18Z</time>
</trkpt>
<trkpt lat="46.550280000" lon="-72.033120000">
<ele>0</ele>
<time>2026-09-04T06:36:19Z</time>
</trkpt>
<trkpt lat="46.550370000" lon="-72.032700000">
<ele>0</ele>
<time>2026-09-04T06:36:20Z</time>
</trkpt>
<trkpt lat="46.550500000" lon="-72.032300000">
<ele>0</ele>
<time>2026-09-04T06:36:21Z</time>
</trkpt>
<trkpt lat="46.550650000" lon="-72.031940000">
<ele>0</ele>
<time>2026-09-04T06:36:22Z</time>
</trkpt>
<trkpt lat="46.550850000" lon="-72.031580000">
<ele>0</ele>
<time>2026-09-04T06:36:23Z</time>
</trkpt>
<trkpt lat="46.551120000" lon="-72.031240000">
<ele>0</ele>
<time>2026-09-04T06:36:24Z</time>
</trkpt>
<trkpt lat="46.551260000" lon="-72.031080000">
<ele>0</ele>
<time>2026-09-04T06:36:25Z</time>
</trkpt>
<trkpt lat="46.552110000" lon="-72.030180000">
<ele>0</ele>
<time>2026-09-04T06:36:26Z</time>
</trkpt>
<trkpt lat="46.552970000" lon="-72.029250000">
<ele>0</ele>
<time>2026-09-04T06:36:27Z</time>
</trkpt>
<trkpt lat="46.553690000" lon="-72.028450000">
<ele>0</ele>
<time>2026-09-04T06:36:28Z</time>
</trkpt>
<trkpt lat="46.553970000" lon="-72.028110000">
<ele>0</ele>
<time>2026-09-04T06:36:29Z</time>
</trkpt>
<trkpt lat="46.554160000" lon="-72.027820000">
<ele>0</ele>
<time>2026-09-04T06:36:30Z</time>
</trkpt>
<trkpt lat="46.554440000" lon="-72.027330000">
<ele>0</ele>
<time>2026-09-04T06:36:31Z</time>
</trkpt>
<trkpt lat="46.554640000" lon="-72.026910000">
<ele>0</ele>
<time>2026-09-04T06:36:32Z</time>
</trkpt>
<trkpt lat="46.554890000" lon="-72.026200000">
<ele>0</ele>
<time>2026-09-04T06:36:33Z</time>
</trkpt>
<trkpt lat="46.555270000" lon="-72.024700000">
<ele>0</ele>
<time>2026-09-04T06:36:34Z</time>
</trkpt>
<trkpt lat="46.555420000" lon="-72.024190000">
<ele>0</ele>
<time>2026-09-04T06:36:35Z</time>
</trkpt>
<trkpt lat="46.555650000" lon="-72.023570000">
<ele>0</ele>
<time>2026-09-04T06:36:36Z</time>
</trkpt>
<trkpt lat="46.555830000" lon="-72.023190000">
<ele>0</ele>
<time>2026-09-04T06:36:37Z</time>
</trkpt>
<trkpt lat="46.556120000" lon="-72.022710000">
<ele>0</ele>
<time>2026-09-04T06:36:38Z</time>
</trkpt>
<trkpt lat="46.557940000" lon="-72.020300000">
<ele>0</ele>
<time>2026-09-04T06:36:39Z</time>
</trkpt>
<trkpt lat="46.560090000" lon="-72.017450000">
<ele>0</ele>
<time>2026-09-04T06:36:40Z</time>
</trkpt>
<trkpt lat="46.560090000" lon="-72.017450000">
<ele>0</ele>
<time>2026-09-04T06:36:41Z</time>
</trkpt>
<trkpt lat="46.560930000" lon="-72.016320000">
<ele>0</ele>
<time>2026-09-04T06:36:42Z</time>
</trkpt>
<trkpt lat="46.561470000" lon="-72.015490000">
<ele>0</ele>
<time>2026-09-04T06:36:43Z</time>
</trkpt>
<trkpt lat="46.562670000" lon="-72.013510000">
<ele>0</ele>
<time>2026-09-04T06:36:44Z</time>
</trkpt>
<trkpt lat="46.563090000" lon="-72.012770000">
<ele>0</ele>
<time>2026-09-04T06:36:45Z</time>
</trkpt>
<trkpt lat="46.563610000" lon="-72.011740000">
<ele>0</ele>
<time>2026-09-04T06:36:46Z</time>
</trkpt>
<trkpt lat="46.564190000" lon="-72.010580000">
<ele>0</ele>
<time>2026-09-04T06:36:47Z</time>
</trkpt>
<trkpt lat="46.564720000" lon="-72.009670000">
<ele>0</ele>
<time>2026-09-04T06:36:48Z</time>
</trkpt>
<trkpt lat="46.564840000" lon="-72.009480000">
<ele>0</ele>
<time>2026-09-04T06:36:49Z</time>
</trkpt>
<trkpt lat="46.565840000" lon="-72.007890000">
<ele>0</ele>
<time>2026-09-04T06:36:50Z</time>
</trkpt>
<trkpt lat="46.566650000" lon="-72.006610000">
<ele>0</ele>
<time>2026-09-04T06:36:51Z</time>
</trkpt>
<trkpt lat="46.567000000" lon="-72.006070000">
<ele>0</ele>
<time>2026-09-04T06:36:52Z</time>
</trkpt>
<trkpt lat="46.567310000" lon="-72.005520000">
<ele>0</ele>
<time>2026-09-04T06:36:53Z</time>
</trkpt>
<trkpt lat="46.567650000" lon="-72.004790000">
<ele>0</ele>
<time>2026-09-04T06:36:54Z</time>
</trkpt>
<trkpt lat="46.568180000" lon="-72.003370000">
<ele>0</ele>
<time>2026-09-04T06:36:55Z</time>
</trkpt>
<trkpt lat="46.568350000" lon="-72.002910000">
<ele>0</ele>
<time>2026-09-04T06:36:56Z</time>
</trkpt>
<trkpt lat="46.568530000" lon="-72.002450000">
<ele>0</ele>
<time>2026-09-04T06:36:57Z</time>
</trkpt>
<trkpt lat="46.568650000" lon="-72.002210000">
<ele>0</ele>
<time>2026-09-04T06:36:58Z</time>
</trkpt>
<trkpt lat="46.568860000" lon="-72.001840000">
<ele>0</ele>
<time>2026-09-04T06:36:59Z</time>
</trkpt>
<trkpt lat="46.569050000" lon="-72.001550000">
<ele>0</ele>
<time>2026-09-04T06:37:00Z</time>
</trkpt>
<trkpt lat="46.569260000" lon="-72.001290000">
<ele>0</ele>
<time>2026-09-04T06:37:01Z</time>
</trkpt>
<trkpt lat="46.569550000" lon="-72.000970000">
<ele>0</ele>
<time>2026-09-04T06:37:02Z</time>
</trkpt>
<trkpt lat="46.569810000" lon="-72.000750000">
<ele>0</ele>
<time>2026-09-04T06:37:03Z</time>
</trkpt>
<trkpt lat="46.569810000" lon="-72.000750000">
<ele>0</ele>
<time>2026-09-04T06:37:04Z</time>
</trkpt>
<trkpt lat="46.570460000" lon="-72.000230000">
<ele>0</ele>
<time>2026-09-04T06:37:05Z</time>
</trkpt>
<trkpt lat="46.570760000" lon="-71.999910000">
<ele>0</ele>
<time>2026-09-04T06:37:06Z</time>
</trkpt>
<trkpt lat="46.570950000" lon="-71.999690000">
<ele>0</ele>
<time>2026-09-04T06:37:07Z</time>
</trkpt>
<trkpt lat="46.571060000" lon="-71.999480000">
<ele>0</ele>
<time>2026-09-04T06:37:08Z</time>
</trkpt>
<trkpt lat="46.571220000" lon="-71.999070000">
<ele>0</ele>
<time>2026-09-04T06:37:09Z</time>
</trkpt>
<trkpt lat="46.571440000" lon="-71.998400000">
<ele>0</ele>
<time>2026-09-04T06:37:10Z</time>
</trkpt>
<trkpt lat="46.571590000" lon="-71.998020000">
<ele>0</ele>
<time>2026-09-04T06:37:11Z</time>
</trkpt>
<trkpt lat="46.571790000" lon="-71.997650000">
<ele>0</ele>
<time>2026-09-04T06:37:12Z</time>
</trkpt>
<trkpt lat="46.571970000" lon="-71.997280000">
<ele>0</ele>
<time>2026-09-04T06:37:13Z</time>
</trkpt>
<trkpt lat="46.572040000" lon="-71.997070000">
<ele>0</ele>
<time>2026-09-04T06:37:14Z</time>
</trkpt>
<trkpt lat="46.572080000" lon="-71.996840000">
<ele>0</ele>
<time>2026-09-04T06:37:15Z</time>
</trkpt>
<trkpt lat="46.572080000" lon="-71.996560000">
<ele>0</ele>
<time>2026-09-04T06:37:16Z</time>
</trkpt>
<trkpt lat="46.571990000" lon="-71.996220000">
<ele>0</ele>
<time>2026-09-04T06:37:17Z</time>
</trkpt>
<trkpt lat="46.571810000" lon="-71.995800000">
<ele>0</ele>
<time>2026-09-04T06:37:18Z</time>
</trkpt>
<trkpt lat="46.571730000" lon="-71.995550000">
<ele>0</ele>
<time>2026-09-04T06:37:19Z</time>
</trkpt>
<trkpt lat="46.571700000" lon="-71.995340000">
<ele>0</ele>
<time>2026-09-04T06:37:20Z</time>
</trkpt>
<trkpt lat="46.571680000" lon="-71.995040000">
<ele>0</ele>
<time>2026-09-04T06:37:21Z</time>
</trkpt>
<trkpt lat="46.571690000" lon="-71.994860000">
<ele>0</ele>
<time>2026-09-04T06:37:22Z</time>
</trkpt>
<trkpt lat="46.571750000" lon="-71.994600000">
<ele>0</ele>
<time>2026-09-04T06:37:23Z</time>
</trkpt>
<trkpt lat="46.571830000" lon="-71.994380000">
<ele>0</ele>
<time>2026-09-04T06:37:24Z</time>
</trkpt>
<trkpt lat="46.571910000" lon="-71.994250000">
<ele>0</ele>
<time>2026-09-04T06:37:25Z</time>
</trkpt>
<trkpt lat="46.572090000" lon="-71.994020000">
<ele>0</ele>
<time>2026-09-04T06:37:26Z</time>
</trkpt>
<trkpt lat="46.572510000" lon="-71.993520000">
<ele>0</ele>
<time>2026-09-04T06:37:27Z</time>
</trkpt>
<trkpt lat="46.573470000" lon="-71.992400000">
<ele>0</ele>
<time>2026-09-04T06:37:28Z</time>
</trkpt>
<trkpt lat="46.573950000" lon="-71.991960000">
<ele>0</ele>
<time>2026-09-04T06:37:29Z</time>
</trkpt>
<trkpt lat="46.574170000" lon="-71.991790000">
<ele>0</ele>
<time>2026-09-04T06:37:30Z</time>
</trkpt>
<trkpt lat="46.574500000" lon="-71.991590000">
<ele>0</ele>
<time>2026-09-04T06:37:31Z</time>
</trkpt>
<trkpt lat="46.574770000" lon="-71.991460000">
<ele>0</ele>
<time>2026-09-04T06:37:32Z</time>
</trkpt>
<trkpt lat="46.574990000" lon="-71.991390000">
<ele>0</ele>
<time>2026-09-04T06:37:33Z</time>
</trkpt>
<trkpt lat="46.575120000" lon="-71.991360000">
<ele>0</ele>
<time>2026-09-04T06:37:34Z</time>
</trkpt>
<trkpt lat="46.575580000" lon="-71.991260000">
<ele>0</ele>
<time>2026-09-04T06:37:35Z</time>
</trkpt>
<trkpt lat="46.576640000" lon="-71.991120000">
<ele>0</ele>
<time>2026-09-04T06:37:36Z</time>
</trkpt>
<trkpt lat="46.576640000" lon="-71.991120000">
<ele>0</ele>
<time>2026-09-04T06:37:37Z</time>
</trkpt>
<trkpt lat="46.576900000" lon="-71.991080000">
<ele>0</ele>
<time>2026-09-04T06:37:38Z</time>
</trkpt>
<trkpt lat="46.577120000" lon="-71.991020000">
<ele>0</ele>
<time>2026-09-04T06:37:39Z</time>
</trkpt>
<trkpt lat="46.577330000" lon="-71.990940000">
<ele>0</ele>
<time>2026-09-04T06:37:40Z</time>
</trkpt>
<trkpt lat="46.577850000" lon="-71.990670000">
<ele>0</ele>
<time>2026-09-04T06:37:41Z</time>
</trkpt>
<trkpt lat="46.578950000" lon="-71.989890000">
<ele>0</ele>
<time>2026-09-04T06:37:42Z</time>
</trkpt>
<trkpt lat="46.580860000" lon="-71.988470000">
<ele>0</ele>
<time>2026-09-04T06:37:43Z</time>
</trkpt>
<trkpt lat="46.581310000" lon="-71.988150000">
<ele>0</ele>
<time>2026-09-04T06:37:44Z</time>
</trkpt>
<trkpt lat="46.581900000" lon="-71.987770000">
<ele>0</ele>
<time>2026-09-04T06:37:45Z</time>
</trkpt>
<trkpt lat="46.582550000" lon="-71.987370000">
<ele>0</ele>
<time>2026-09-04T06:37:46Z</time>
</trkpt>
<trkpt lat="46.582700000" lon="-71.987290000">
<ele>0</ele>
<time>2026-09-04T06:37:47Z</time>
</trkpt>
<trkpt lat="46.583570000" lon="-71.986770000">
<ele>0</ele>
<time>2026-09-04T06:37:48Z</time>
</trkpt>
<trkpt lat="46.584990000" lon="-71.985910000">
<ele>0</ele>
<time>2026-09-04T06:37:49Z</time>
</trkpt>
<trkpt lat="46.585740000" lon="-71.985430000">
<ele>0</ele>
<time>2026-09-04T06:37:50Z</time>
</trkpt>
<trkpt lat="46.586080000" lon="-71.985160000">
<ele>0</ele>
<time>2026-09-04T06:37:51Z</time>
</trkpt>
<trkpt lat="46.586270000" lon="-71.984980000">
<ele>0</ele>
<time>2026-09-04T06:37:52Z</time>
</trkpt>
<trkpt lat="46.586490000" lon="-71.984740000">
<ele>0</ele>
<time>2026-09-04T06:37:53Z</time>
</trkpt>
<trkpt lat="46.586820000" lon="-71.984320000">
<ele>0</ele>
<time>2026-09-04T06:37:54Z</time>
</trkpt>
<trkpt lat="46.587130000" lon="-71.983860000">
<ele>0</ele>
<time>2026-09-04T06:37:55Z</time>
</trkpt>
<trkpt lat="46.587330000" lon="-71.983520000">
<ele>0</ele>
<time>2026-09-04T06:37:56Z</time>
</trkpt>
<trkpt lat="46.587620000" lon="-71.982960000">
<ele>0</ele>
<time>2026-09-04T06:37:57Z</time>
</trkpt>
<trkpt lat="46.588100000" lon="-71.981790000">
<ele>0</ele>
<time>2026-09-04T06:37:58Z</time>
</trkpt>
<trkpt lat="46.588810000" lon="-71.979980000">
<ele>0</ele>
<time>2026-09-04T06:37:59Z</time>
</trkpt>
<trkpt lat="46.589190000" lon="-71.979010000">
<ele>0</ele>
<time>2026-09-04T06:38:00Z</time>
</trkpt>
<trkpt lat="46.589460000" lon="-71.978400000">
<ele>0</ele>
<time>2026-09-04T06:38:01Z</time>
</trkpt>
<trkpt lat="46.589780000" lon="-71.977820000">
<ele>0</ele>
<time>2026-09-04T06:38:02Z</time>
</trkpt>
<trkpt lat="46.589960000" lon="-71.977560000">
<ele>0</ele>
<time>2026-09-04T06:38:03Z</time>
</trkpt>
<trkpt lat="46.590260000" lon="-71.977140000">
<ele>0</ele>
<time>2026-09-04T06:38:04Z</time>
</trkpt>
<trkpt lat="46.590540000" lon="-71.976850000">
<ele>0</ele>
<time>2026-09-04T06:38:05Z</time>
</trkpt>
<trkpt lat="46.590880000" lon="-71.976550000">
<ele>0</ele>
<time>2026-09-04T06:38:06Z</time>
</trkpt>
<trkpt lat="46.591300000" lon="-71.976230000">
<ele>0</ele>
<time>2026-09-04T06:38:07Z</time>
</trkpt>
<trkpt lat="46.591920000" lon="-71.975770000">
<ele>0</ele>
<time>2026-09-04T06:38:08Z</time>
</trkpt>
<trkpt lat="46.593580000" lon="-71.974540000">
<ele>0</ele>
<time>2026-09-04T06:38:09Z</time>
</trkpt>
<trkpt lat="46.594730000" lon="-71.973670000">
<ele>0</ele>
<time>2026-09-04T06:38:10Z</time>
</trkpt>
<trkpt lat="46.595120000" lon="-71.973310000">
<ele>0</ele>
<time>2026-09-04T06:38:11Z</time>
</trkpt>
<trkpt lat="46.595410000" lon="-71.972960000">
<ele>0</ele>
<time>2026-09-04T06:38:12Z</time>
</trkpt>
<trkpt lat="46.595680000" lon="-71.972580000">
<ele>0</ele>
<time>2026-09-04T06:38:13Z</time>
</trkpt>
<trkpt lat="46.595990000" lon="-71.972110000">
<ele>0</ele>
<time>2026-09-04T06:38:14Z</time>
</trkpt>
<trkpt lat="46.596690000" lon="-71.971020000">
<ele>0</ele>
<time>2026-09-04T06:38:15Z</time>
</trkpt>
<trkpt lat="46.596900000" lon="-71.970710000">
<ele>0</ele>
<time>2026-09-04T06:38:16Z</time>
</trkpt>
<trkpt lat="46.597130000" lon="-71.970440000">
<ele>0</ele>
<time>2026-09-04T06:38:17Z</time>
</trkpt>
<trkpt lat="46.597380000" lon="-71.970200000">
<ele>0</ele>
<time>2026-09-04T06:38:18Z</time>
</trkpt>
<trkpt lat="46.597560000" lon="-71.970060000">
<ele>0</ele>
<time>2026-09-04T06:38:19Z</time>
</trkpt>
<trkpt lat="46.597920000" lon="-71.969830000">
<ele>0</ele>
<time>2026-09-04T06:38:20Z</time>
</trkpt>
<trkpt lat="46.599130000" lon="-71.969160000">
<ele>0</ele>
<time>2026-09-04T06:38:21Z</time>
</trkpt>
<trkpt lat="46.599670000" lon="-71.968870000">
<ele>0</ele>
<time>2026-09-04T06:38:22Z</time>
</trkpt>
<trkpt lat="46.599980000" lon="-71.968660000">
<ele>0</ele>
<time>2026-09-04T06:38:23Z</time>
</trkpt>
<trkpt lat="46.600400000" lon="-71.968310000">
<ele>0</ele>
<time>2026-09-04T06:38:24Z</time>
</trkpt>
<trkpt lat="46.600710000" lon="-71.967970000">
<ele>0</ele>
<time>2026-09-04T06:38:25Z</time>
</trkpt>
<trkpt lat="46.600910000" lon="-71.967690000">
<ele>0</ele>
<time>2026-09-04T06:38:26Z</time>
</trkpt>
<trkpt lat="46.601180000" lon="-71.967240000">
<ele>0</ele>
<time>2026-09-04T06:38:27Z</time>
</trkpt>
<trkpt lat="46.601550000" lon="-71.966570000">
<ele>0</ele>
<time>2026-09-04T06:38:28Z</time>
</trkpt>
<trkpt lat="46.602460000" lon="-71.964770000">
<ele>0</ele>
<time>2026-09-04T06:38:29Z</time>
</trkpt>
<trkpt lat="46.602790000" lon="-71.964070000">
<ele>0</ele>
<time>2026-09-04T06:38:30Z</time>
</trkpt>
<trkpt lat="46.603030000" lon="-71.963440000">
<ele>0</ele>
<time>2026-09-04T06:38:31Z</time>
</trkpt>
<trkpt lat="46.603290000" lon="-71.962590000">
<ele>0</ele>
<time>2026-09-04T06:38:32Z</time>
</trkpt>
<trkpt lat="46.603730000" lon="-71.960880000">
<ele>0</ele>
<time>2026-09-04T06:38:33Z</time>
</trkpt>
<trkpt lat="46.603910000" lon="-71.960280000">
<ele>0</ele>
<time>2026-09-04T06:38:34Z</time>
</trkpt>
<trkpt lat="46.604020000" lon="-71.959970000">
<ele>0</ele>
<time>2026-09-04T06:38:35Z</time>
</trkpt>
<trkpt lat="46.604220000" lon="-71.959530000">
<ele>0</ele>
<time>2026-09-04T06:38:36Z</time>
</trkpt>
<trkpt lat="46.604370000" lon="-71.959250000">
<ele>0</ele>
<time>2026-09-04T06:38:37Z</time>
</trkpt>
<trkpt lat="46.604550000" lon="-71.958960000">
<ele>0</ele>
<time>2026-09-04T06:38:38Z</time>
</trkpt>
<trkpt lat="46.604720000" lon="-71.958750000">
<ele>0</ele>
<time>2026-09-04T06:38:39Z</time>
</trkpt>
<trkpt lat="46.604900000" lon="-71.958560000">
<ele>0</ele>
<time>2026-09-04T06:38:40Z</time>
</trkpt>
<trkpt lat="46.605160000" lon="-71.958340000">
<ele>0</ele>
<time>2026-09-04T06:38:41Z</time>
</trkpt>
<trkpt lat="46.605440000" lon="-71.958160000">
<ele>0</ele>
<time>2026-09-04T06:38:42Z</time>
</trkpt>
<trkpt lat="46.605650000" lon="-71.958060000">
<ele>0</ele>
<time>2026-09-04T06:38:43Z</time>
</trkpt>
<trkpt lat="46.606010000" lon="-71.957910000">
<ele>0</ele>
<time>2026-09-04T06:38:44Z</time>
</trkpt>
<trkpt lat="46.606560000" lon="-71.957700000">
<ele>0</ele>
<time>2026-09-04T06:38:45Z</time>
</trkpt>
<trkpt lat="46.606970000" lon="-71.957520000">
<ele>0</ele>
<time>2026-09-04T06:38:46Z</time>
</trkpt>
<trkpt lat="46.607220000" lon="-71.957370000">
<ele>0</ele>
<time>2026-09-04T06:38:47Z</time>
</trkpt>
<trkpt lat="46.607630000" lon="-71.957070000">
<ele>0</ele>
<time>2026-09-04T06:38:48Z</time>
</trkpt>
<trkpt lat="46.608180000" lon="-71.956580000">
<ele>0</ele>
<time>2026-09-04T06:38:49Z</time>
</trkpt>
<trkpt lat="46.608600000" lon="-71.956180000">
<ele>0</ele>
<time>2026-09-04T06:38:50Z</time>
</trkpt>
<trkpt lat="46.609540000" lon="-71.955240000">
<ele>0</ele>
<time>2026-09-04T06:38:51Z</time>
</trkpt>
<trkpt lat="46.609840000" lon="-71.954940000">
<ele>0</ele>
<time>2026-09-04T06:38:52Z</time>
</trkpt>
<trkpt lat="46.610170000" lon="-71.954560000">
<ele>0</ele>
<time>2026-09-04T06:38:53Z</time>
</trkpt>
<trkpt lat="46.610510000" lon="-71.954100000">
<ele>0</ele>
<time>2026-09-04T06:38:54Z</time>
</trkpt>
<trkpt lat="46.610820000" lon="-71.953580000">
<ele>0</ele>
<time>2026-09-04T06:38:55Z</time>
</trkpt>
<trkpt lat="46.611340000" lon="-71.952550000">
<ele>0</ele>
<time>2026-09-04T06:38:56Z</time>
</trkpt>
<trkpt lat="46.611670000" lon="-71.951800000">
<ele>0</ele>
<time>2026-09-04T06:38:57Z</time>
</trkpt>
<trkpt lat="46.612030000" lon="-71.950860000">
<ele>0</ele>
<time>2026-09-04T06:38:58Z</time>
</trkpt>
<trkpt lat="46.612310000" lon="-71.950010000">
<ele>0</ele>
<time>2026-09-04T06:38:59Z</time>
</trkpt>
<trkpt lat="46.612930000" lon="-71.948160000">
<ele>0</ele>
<time>2026-09-04T06:39:00Z</time>
</trkpt>
<trkpt lat="46.612930000" lon="-71.948160000">
<ele>0</ele>
<time>2026-09-04T06:39:01Z</time>
</trkpt>
<trkpt lat="46.613860000" lon="-71.945400000">
<ele>0</ele>
<time>2026-09-04T06:39:02Z</time>
</trkpt>
<trkpt lat="46.614120000" lon="-71.944500000">
<ele>0</ele>
<time>2026-09-04T06:39:03Z</time>
</trkpt>
<trkpt lat="46.614490000" lon="-71.942990000">
<ele>0</ele>
<time>2026-09-04T06:39:04Z</time>
</trkpt>
<trkpt lat="46.614640000" lon="-71.942300000">
<ele>0</ele>
<time>2026-09-04T06:39:05Z</time>
</trkpt>
<trkpt lat="46.614840000" lon="-71.941550000">
<ele>0</ele>
<time>2026-09-04T06:39:06Z</time>
</trkpt>
<trkpt lat="46.615190000" lon="-71.940490000">
<ele>0</ele>
<time>2026-09-04T06:39:07Z</time>
</trkpt>
<trkpt lat="46.615410000" lon="-71.939850000">
<ele>0</ele>
<time>2026-09-04T06:39:08Z</time>
</trkpt>
<trkpt lat="46.615500000" lon="-71.939480000">
<ele>0</ele>
<time>2026-09-04T06:39:09Z</time>
</trkpt>
<trkpt lat="46.615780000" lon="-71.937870000">
<ele>0</ele>
<time>2026-09-04T06:39:10Z</time>
</trkpt>
<trkpt lat="46.616230000" lon="-71.935750000">
<ele>0</ele>
<time>2026-09-04T06:39:11Z</time>
</trkpt>
<trkpt lat="46.616360000" lon="-71.935000000">
<ele>0</ele>
<time>2026-09-04T06:39:12Z</time>
</trkpt>
<trkpt lat="46.616420000" lon="-71.934490000">
<ele>0</ele>
<time>2026-09-04T06:39:13Z</time>
</trkpt>
<trkpt lat="46.616430000" lon="-71.933490000">
<ele>0</ele>
<time>2026-09-04T06:39:14Z</time>
</trkpt>
<trkpt lat="46.616430000" lon="-71.932270000">
<ele>0</ele>
<time>2026-09-04T06:39:15Z</time>
</trkpt>
<trkpt lat="46.616470000" lon="-71.931760000">
<ele>0</ele>
<time>2026-09-04T06:39:16Z</time>
</trkpt>
<trkpt lat="46.616690000" lon="-71.929930000">
<ele>0</ele>
<time>2026-09-04T06:39:17Z</time>
</trkpt>
<trkpt lat="46.616860000" lon="-71.928680000">
<ele>0</ele>
<time>2026-09-04T06:39:18Z</time>
</trkpt>
<trkpt lat="46.617030000" lon="-71.927440000">
<ele>0</ele>
<time>2026-09-04T06:39:19Z</time>
</trkpt>
<trkpt lat="46.617140000" lon="-71.926510000">
<ele>0</ele>
<time>2026-09-04T06:39:20Z</time>
</trkpt>
<trkpt lat="46.617330000" lon="-71.925100000">
<ele>0</ele>
<time>2026-09-04T06:39:21Z</time>
</trkpt>
<trkpt lat="46.617750000" lon="-71.923000000">
<ele>0</ele>
<time>2026-09-04T06:39:22Z</time>
</trkpt>
<trkpt lat="46.618430000" lon="-71.919710000">
<ele>0</ele>
<time>2026-09-04T06:39:23Z</time>
</trkpt>
<trkpt lat="46.618570000" lon="-71.919250000">
<ele>0</ele>
<time>2026-09-04T06:39:24Z</time>
</trkpt>
<trkpt lat="46.618760000" lon="-71.918760000">
<ele>0</ele>
<time>2026-09-04T06:39:25Z</time>
</trkpt>
<trkpt lat="46.619040000" lon="-71.918120000">
<ele>0</ele>
<time>2026-09-04T06:39:26Z</time>
</trkpt>
<trkpt lat="46.621140000" lon="-71.914220000">
<ele>0</ele>
<time>2026-09-04T06:39:27Z</time>
</trkpt>
<trkpt lat="46.621580000" lon="-71.913390000">
<ele>0</ele>
<time>2026-09-04T06:39:28Z</time>
</trkpt>
<trkpt lat="46.622270000" lon="-71.912170000">
<ele>0</ele>
<time>2026-09-04T06:39:29Z</time>
</trkpt>
<trkpt lat="46.622600000" lon="-71.911500000">
<ele>0</ele>
<time>2026-09-04T06:39:30Z</time>
</trkpt>
<trkpt lat="46.622920000" lon="-71.910660000">
<ele>0</ele>
<time>2026-09-04T06:39:31Z</time>
</trkpt>
<trkpt lat="46.623120000" lon="-71.910070000">
<ele>0</ele>
<time>2026-09-04T06:39:32Z</time>
</trkpt>
<trkpt lat="46.623320000" lon="-71.909340000">
<ele>0</ele>
<time>2026-09-04T06:39:33Z</time>
</trkpt>
<trkpt lat="46.623450000" lon="-71.908850000">
<ele>0</ele>
<time>2026-09-04T06:39:34Z</time>
</trkpt>
<trkpt lat="46.623610000" lon="-71.908310000">
<ele>0</ele>
<time>2026-09-04T06:39:35Z</time>
</trkpt>
<trkpt lat="46.623920000" lon="-71.907640000">
<ele>0</ele>
<time>2026-09-04T06:39:36Z</time>
</trkpt>
<trkpt lat="46.624150000" lon="-71.907180000">
<ele>0</ele>
<time>2026-09-04T06:39:37Z</time>
</trkpt>
<trkpt lat="46.624230000" lon="-71.907050000">
<ele>0</ele>
<time>2026-09-04T06:39:38Z</time>
</trkpt>
<trkpt lat="46.624500000" lon="-71.906710000">
<ele>0</ele>
<time>2026-09-04T06:39:39Z</time>
</trkpt>
<trkpt lat="46.624690000" lon="-71.906500000">
<ele>0</ele>
<time>2026-09-04T06:39:40Z</time>
</trkpt>
<trkpt lat="46.625000000" lon="-71.906220000">
<ele>0</ele>
<time>2026-09-04T06:39:41Z</time>
</trkpt>
<trkpt lat="46.626320000" lon="-71.905090000">
<ele>0</ele>
<time>2026-09-04T06:39:42Z</time>
</trkpt>
<trkpt lat="46.627230000" lon="-71.904320000">
<ele>0</ele>
<time>2026-09-04T06:39:43Z</time>
</trkpt>
<trkpt lat="46.627540000" lon="-71.904070000">
<ele>0</ele>
<time>2026-09-04T06:39:44Z</time>
</trkpt>
<trkpt lat="46.627860000" lon="-71.903810000">
<ele>0</ele>
<time>2026-09-04T06:39:45Z</time>
</trkpt>
<trkpt lat="46.628140000" lon="-71.903620000">
<ele>0</ele>
<time>2026-09-04T06:39:46Z</time>
</trkpt>
<trkpt lat="46.628360000" lon="-71.903500000">
<ele>0</ele>
<time>2026-09-04T06:39:47Z</time>
</trkpt>
<trkpt lat="46.628620000" lon="-71.903400000">
<ele>0</ele>
<time>2026-09-04T06:39:48Z</time>
</trkpt>
<trkpt lat="46.629590000" lon="-71.903140000">
<ele>0</ele>
<time>2026-09-04T06:39:49Z</time>
</trkpt>
<trkpt lat="46.631360000" lon="-71.902710000">
<ele>0</ele>
<time>2026-09-04T06:39:50Z</time>
</trkpt>
<trkpt lat="46.631610000" lon="-71.902620000">
<ele>0</ele>
<time>2026-09-04T06:39:51Z</time>
</trkpt>
<trkpt lat="46.632040000" lon="-71.902390000">
<ele>0</ele>
<time>2026-09-04T06:39:52Z</time>
</trkpt>
<trkpt lat="46.632380000" lon="-71.902140000">
<ele>0</ele>
<time>2026-09-04T06:39:53Z</time>
</trkpt>
<trkpt lat="46.632660000" lon="-71.901870000">
<ele>0</ele>
<time>2026-09-04T06:39:54Z</time>
</trkpt>
<trkpt lat="46.632800000" lon="-71.901700000">
<ele>0</ele>
<time>2026-09-04T06:39:55Z</time>
</trkpt>
<trkpt lat="46.633070000" lon="-71.901350000">
<ele>0</ele>
<time>2026-09-04T06:39:56Z</time>
</trkpt>
<trkpt lat="46.633670000" lon="-71.900370000">
<ele>0</ele>
<time>2026-09-04T06:39:57Z</time>
</trkpt>
<trkpt lat="46.634170000" lon="-71.899550000">
<ele>0</ele>
<time>2026-09-04T06:39:58Z</time>
</trkpt>
<trkpt lat="46.634630000" lon="-71.898910000">
<ele>0</ele>
<time>2026-09-04T06:39:59Z</time>
</trkpt>
<trkpt lat="46.635060000" lon="-71.898410000">
<ele>0</ele>
<time>2026-09-04T06:40:00Z</time>
</trkpt>
<trkpt lat="46.635410000" lon="-71.898080000">
<ele>0</ele>
<time>2026-09-04T06:40:01Z</time>
</trkpt>
<trkpt lat="46.635780000" lon="-71.897800000">
<ele>0</ele>
<time>2026-09-04T06:40:02Z</time>
</trkpt>
<trkpt lat="46.636330000" lon="-71.897470000">
<ele>0</ele>
<time>2026-09-04T06:40:03Z</time>
</trkpt>
<trkpt lat="46.637040000" lon="-71.897130000">
<ele>0</ele>
<time>2026-09-04T06:40:04Z</time>
</trkpt>
<trkpt lat="46.638580000" lon="-71.896380000">
<ele>0</ele>
<time>2026-09-04T06:40:05Z</time>
</trkpt>
<trkpt lat="46.639010000" lon="-71.896130000">
<ele>0</ele>
<time>2026-09-04T06:40:06Z</time>
</trkpt>
<trkpt lat="46.639160000" lon="-71.896030000">
<ele>0</ele>
<time>2026-09-04T06:40:07Z</time>
</trkpt>
<trkpt lat="46.639420000" lon="-71.895800000">
<ele>0</ele>
<time>2026-09-04T06:40:08Z</time>
</trkpt>
<trkpt lat="46.639800000" lon="-71.895380000">
<ele>0</ele>
<time>2026-09-04T06:40:09Z</time>
</trkpt>
<trkpt lat="46.640260000" lon="-71.894770000">
<ele>0</ele>
<time>2026-09-04T06:40:10Z</time>
</trkpt>
<trkpt lat="46.641100000" lon="-71.893630000">
<ele>0</ele>
<time>2026-09-04T06:40:11Z</time>
</trkpt>
<trkpt lat="46.641270000" lon="-71.893420000">
<ele>0</ele>
<time>2026-09-04T06:40:12Z</time>
</trkpt>
<trkpt lat="46.641600000" lon="-71.893120000">
<ele>0</ele>
<time>2026-09-04T06:40:13Z</time>
</trkpt>
<trkpt lat="46.641790000" lon="-71.892980000">
<ele>0</ele>
<time>2026-09-04T06:40:14Z</time>
</trkpt>
<trkpt lat="46.642070000" lon="-71.892840000">
<ele>0</ele>
<time>2026-09-04T06:40:15Z</time>
</trkpt>
<trkpt lat="46.642400000" lon="-71.892760000">
<ele>0</ele>
<time>2026-09-04T06:40:16Z</time>
</trkpt>
<trkpt lat="46.642960000" lon="-71.892740000">
<ele>0</ele>
<time>2026-09-04T06:40:17Z</time>
</trkpt>
<trkpt lat="46.643630000" lon="-71.892730000">
<ele>0</ele>
<time>2026-09-04T06:40:18Z</time>
</trkpt>
<trkpt lat="46.643890000" lon="-71.892700000">
<ele>0</ele>
<time>2026-09-04T06:40:19Z</time>
</trkpt>
<trkpt lat="46.644050000" lon="-71.892670000">
<ele>0</ele>
<time>2026-09-04T06:40:20Z</time>
</trkpt>
<trkpt lat="46.644390000" lon="-71.892550000">
<ele>0</ele>
<time>2026-09-04T06:40:21Z</time>
</trkpt>
<trkpt lat="46.644560000" lon="-71.892480000">
<ele>0</ele>
<time>2026-09-04T06:40:22Z</time>
</trkpt>
<trkpt lat="46.644700000" lon="-71.892410000">
<ele>0</ele>
<time>2026-09-04T06:40:23Z</time>
</trkpt>
<trkpt lat="46.644930000" lon="-71.892250000">
<ele>0</ele>
<time>2026-09-04T06:40:24Z</time>
</trkpt>
<trkpt lat="46.645220000" lon="-71.892010000">
<ele>0</ele>
<time>2026-09-04T06:40:25Z</time>
</trkpt>
<trkpt lat="46.645500000" lon="-71.891720000">
<ele>0</ele>
<time>2026-09-04T06:40:26Z</time>
</trkpt>
<trkpt lat="46.645660000" lon="-71.891520000">
<ele>0</ele>
<time>2026-09-04T06:40:27Z</time>
</trkpt>
<trkpt lat="46.646060000" lon="-71.890910000">
<ele>0</ele>
<time>2026-09-04T06:40:28Z</time>
</trkpt>
<trkpt lat="46.646060000" lon="-71.890910000">
<ele>0</ele>
<time>2026-09-04T06:40:29Z</time>
</trkpt>
<trkpt lat="46.647340000" lon="-71.888950000">
<ele>0</ele>
<time>2026-09-04T06:40:30Z</time>
</trkpt>
<trkpt lat="46.648090000" lon="-71.887900000">
<ele>0</ele>
<time>2026-09-04T06:40:31Z</time>
</trkpt>
<trkpt lat="46.651220000" lon="-71.884010000">
<ele>0</ele>
<time>2026-09-04T06:40:32Z</time>
</trkpt>
<trkpt lat="46.651670000" lon="-71.883460000">
<ele>0</ele>
<time>2026-09-04T06:40:33Z</time>
</trkpt>
<trkpt lat="46.651990000" lon="-71.883130000">
<ele>0</ele>
<time>2026-09-04T06:40:34Z</time>
</trkpt>
<trkpt lat="46.652270000" lon="-71.882890000">
<ele>0</ele>
<time>2026-09-04T06:40:35Z</time>
</trkpt>
<trkpt lat="46.652610000" lon="-71.882650000">
<ele>0</ele>
<time>2026-09-04T06:40:36Z</time>
</trkpt>
<trkpt lat="46.653290000" lon="-71.882250000">
<ele>0</ele>
<time>2026-09-04T06:40:37Z</time>
</trkpt>
<trkpt lat="46.653790000" lon="-71.881970000">
<ele>0</ele>
<time>2026-09-04T06:40:38Z</time>
</trkpt>
<trkpt lat="46.654350000" lon="-71.881600000">
<ele>0</ele>
<time>2026-09-04T06:40:39Z</time>
</trkpt>
<trkpt lat="46.654690000" lon="-71.881320000">
<ele>0</ele>
<time>2026-09-04T06:40:40Z</time>
</trkpt>
<trkpt lat="46.654990000" lon="-71.881010000">
<ele>0</ele>
<time>2026-09-04T06:40:41Z</time>
</trkpt>
<trkpt lat="46.655140000" lon="-71.880830000">
<ele>0</ele>
<time>2026-09-04T06:40:42Z</time>
</trkpt>
<trkpt lat="46.655390000" lon="-71.880490000">
<ele>0</ele>
<time>2026-09-04T06:40:43Z</time>
</trkpt>
<trkpt lat="46.655560000" lon="-71.880230000">
<ele>0</ele>
<time>2026-09-04T06:40:44Z</time>
</trkpt>
<trkpt lat="46.656270000" lon="-71.878920000">
<ele>0</ele>
<time>2026-09-04T06:40:45Z</time>
</trkpt>
<trkpt lat="46.656790000" lon="-71.877910000">
<ele>0</ele>
<time>2026-09-04T06:40:46Z</time>
</trkpt>
<trkpt lat="46.657110000" lon="-71.877320000">
<ele>0</ele>
<time>2026-09-04T06:40:47Z</time>
</trkpt>
<trkpt lat="46.657430000" lon="-71.876800000">
<ele>0</ele>
<time>2026-09-04T06:40:48Z</time>
</trkpt>
<trkpt lat="46.657760000" lon="-71.876310000">
<ele>0</ele>
<time>2026-09-04T06:40:49Z</time>
</trkpt>
<trkpt lat="46.658610000" lon="-71.875190000">
<ele>0</ele>
<time>2026-09-04T06:40:50Z</time>
</trkpt>
<trkpt lat="46.659020000" lon="-71.874650000">
<ele>0</ele>
<time>2026-09-04T06:40:51Z</time>
</trkpt>
<trkpt lat="46.659300000" lon="-71.874220000">
<ele>0</ele>
<time>2026-09-04T06:40:52Z</time>
</trkpt>
<trkpt lat="46.659660000" lon="-71.873600000">
<ele>0</ele>
<time>2026-09-04T06:40:53Z</time>
</trkpt>
<trkpt lat="46.660200000" lon="-71.872580000">
<ele>0</ele>
<time>2026-09-04T06:40:54Z</time>
</trkpt>
<trkpt lat="46.660410000" lon="-71.872180000">
<ele>0</ele>
<time>2026-09-04T06:40:55Z</time>
</trkpt>
<trkpt lat="46.660600000" lon="-71.871820000">
<ele>0</ele>
<time>2026-09-04T06:40:56Z</time>
</trkpt>
<trkpt lat="46.660950000" lon="-71.871290000">
<ele>0</ele>
<time>2026-09-04T06:40:57Z</time>
</trkpt>
<trkpt lat="46.661150000" lon="-71.871030000">
<ele>0</ele>
<time>2026-09-04T06:40:58Z</time>
</trkpt>
<trkpt lat="46.661340000" lon="-71.870840000">
<ele>0</ele>
<time>2026-09-04T06:40:59Z</time>
</trkpt>
<trkpt lat="46.661800000" lon="-71.870430000">
<ele>0</ele>
<time>2026-09-04T06:41:00Z</time>
</trkpt>
<trkpt lat="46.662340000" lon="-71.869970000">
<ele>0</ele>
<time>2026-09-04T06:41:01Z</time>
</trkpt>
<trkpt lat="46.662620000" lon="-71.869640000">
<ele>0</ele>
<time>2026-09-04T06:41:02Z</time>
</trkpt>
<trkpt lat="46.662910000" lon="-71.869200000">
<ele>0</ele>
<time>2026-09-04T06:41:03Z</time>
</trkpt>
<trkpt lat="46.663120000" lon="-71.868780000">
<ele>0</ele>
<time>2026-09-04T06:41:04Z</time>
</trkpt>
<trkpt lat="46.663340000" lon="-71.868300000">
<ele>0</ele>
<time>2026-09-04T06:41:05Z</time>
</trkpt>
<trkpt lat="46.663540000" lon="-71.867760000">
<ele>0</ele>
<time>2026-09-04T06:41:06Z</time>
</trkpt>
<trkpt lat="46.664300000" lon="-71.865840000">
<ele>0</ele>
<time>2026-09-04T06:41:07Z</time>
</trkpt>
<trkpt lat="46.664820000" lon="-71.864560000">
<ele>0</ele>
<time>2026-09-04T06:41:08Z</time>
</trkpt>
<trkpt lat="46.665010000" lon="-71.863910000">
<ele>0</ele>
<time>2026-09-04T06:41:09Z</time>
</trkpt>
<trkpt lat="46.665130000" lon="-71.863280000">
<ele>0</ele>
<time>2026-09-04T06:41:10Z</time>
</trkpt>
<trkpt lat="46.665230000" lon="-71.862470000">
<ele>0</ele>
<time>2026-09-04T06:41:11Z</time>
</trkpt>
<trkpt lat="46.665370000" lon="-71.861260000">
<ele>0</ele>
<time>2026-09-04T06:41:12Z</time>
</trkpt>
<trkpt lat="46.665600000" lon="-71.859600000">
<ele>0</ele>
<time>2026-09-04T06:41:13Z</time>
</trkpt>
<trkpt lat="46.665650000" lon="-71.859120000">
<ele>0</ele>
<time>2026-09-04T06:41:14Z</time>
</trkpt>
<trkpt lat="46.665710000" lon="-71.859050000">
<ele>0</ele>
<time>2026-09-04T06:41:15Z</time>
</trkpt>
<trkpt lat="46.665770000" lon="-71.858910000">
<ele>0</ele>
<time>2026-09-04T06:41:16Z</time>
</trkpt>
<trkpt lat="46.665920000" lon="-71.858380000">
<ele>0</ele>
<time>2026-09-04T06:41:17Z</time>
</trkpt>
<trkpt lat="46.666090000" lon="-71.857750000">
<ele>0</ele>
<time>2026-09-04T06:41:18Z</time>
</trkpt>
<trkpt lat="46.666160000" lon="-71.857180000">
<ele>0</ele>
<time>2026-09-04T06:41:19Z</time>
</trkpt>
<trkpt lat="46.666320000" lon="-71.855030000">
<ele>0</ele>
<time>2026-09-04T06:41:20Z</time>
</trkpt>
<trkpt lat="46.666340000" lon="-71.854580000">
<ele>0</ele>
<time>2026-09-04T06:41:21Z</time>
</trkpt>
<trkpt lat="46.666340000" lon="-71.854200000">
<ele>0</ele>
<time>2026-09-04T06:41:22Z</time>
</trkpt>
<trkpt lat="46.666250000" lon="-71.853170000">
<ele>0</ele>
<time>2026-09-04T06:41:23Z</time>
</trkpt>
<trkpt lat="46.666190000" lon="-71.852650000">
<ele>0</ele>
<time>2026-09-04T06:41:24Z</time>
</trkpt>
<trkpt lat="46.666170000" lon="-71.852480000">
<ele>0</ele>
<time>2026-09-04T06:41:25Z</time>
</trkpt>
<trkpt lat="46.666170000" lon="-71.852480000">
<ele>0</ele>
<time>2026-09-04T06:41:26Z</time>
</trkpt>
<trkpt lat="46.665930000" lon="-71.850590000">
<ele>0</ele>
<time>2026-09-04T06:41:27Z</time>
</trkpt>
<trkpt lat="46.665790000" lon="-71.849830000">
<ele>0</ele>
<time>2026-09-04T06:41:28Z</time>
</trkpt>
<trkpt lat="46.665600000" lon="-71.849100000">
<ele>0</ele>
<time>2026-09-04T06:41:29Z</time>
</trkpt>
<trkpt lat="46.665120000" lon="-71.847400000">
<ele>0</ele>
<time>2026-09-04T06:41:30Z</time>
</trkpt>
<trkpt lat="46.664900000" lon="-71.846680000">
<ele>0</ele>
<time>2026-09-04T06:41:31Z</time>
</trkpt>
<trkpt lat="46.664780000" lon="-71.846310000">
<ele>0</ele>
<time>2026-09-04T06:41:32Z</time>
</trkpt>
<trkpt lat="46.664700000" lon="-71.845950000">
<ele>0</ele>
<time>2026-09-04T06:41:33Z</time>
</trkpt>
<trkpt lat="46.664580000" lon="-71.845190000">
<ele>0</ele>
<time>2026-09-04T06:41:34Z</time>
</trkpt>
<trkpt lat="46.664490000" lon="-71.844580000">
<ele>0</ele>
<time>2026-09-04T06:41:35Z</time>
</trkpt>
<trkpt lat="46.664400000" lon="-71.844170000">
<ele>0</ele>
<time>2026-09-04T06:41:36Z</time>
</trkpt>
<trkpt lat="46.664330000" lon="-71.843930000">
<ele>0</ele>
<time>2026-09-04T06:41:37Z</time>
</trkpt>
<trkpt lat="46.664130000" lon="-71.843500000">
<ele>0</ele>
<time>2026-09-04T06:41:38Z</time>
</trkpt>
<trkpt lat="46.663720000" lon="-71.842990000">
<ele>0</ele>
<time>2026-09-04T06:41:39Z</time>
</trkpt>
<trkpt lat="46.663290000" lon="-71.842510000">
<ele>0</ele>
<time>2026-09-04T06:41:40Z</time>
</trkpt>
<trkpt lat="46.662580000" lon="-71.841630000">
<ele>0</ele>
<time>2026-09-04T06:41:41Z</time>
</trkpt>
<trkpt lat="46.662000000" lon="-71.841240000">
<ele>0</ele>
<time>2026-09-04T06:41:42Z</time>
</trkpt>
<trkpt lat="46.661630000" lon="-71.841030000">
<ele>0</ele>
<time>2026-09-04T06:41:43Z</time>
</trkpt>
<trkpt lat="46.661300000" lon="-71.840800000">
<ele>0</ele>
<time>2026-09-04T06:41:44Z</time>
</trkpt>
<trkpt lat="46.660820000" lon="-71.840460000">
<ele>0</ele>
<time>2026-09-04T06:41:45Z</time>
</trkpt>
<trkpt lat="46.660530000" lon="-71.840240000">
<ele>0</ele>
<time>2026-09-04T06:41:46Z</time>
</trkpt>
<trkpt lat="46.659990000" lon="-71.839690000">
<ele>0</ele>
<time>2026-09-04T06:41:47Z</time>
</trkpt>
<trkpt lat="46.659370000" lon="-71.838920000">
<ele>0</ele>
<time>2026-09-04T06:41:48Z</time>
</trkpt>
<trkpt lat="46.658960000" lon="-71.838400000">
<ele>0</ele>
<time>2026-09-04T06:41:49Z</time>
</trkpt>
<trkpt lat="46.658560000" lon="-71.837880000">
<ele>0</ele>
<time>2026-09-04T06:41:50Z</time>
</trkpt>
<trkpt lat="46.658140000" lon="-71.837390000">
<ele>0</ele>
<time>2026-09-04T06:41:51Z</time>
</trkpt>
<trkpt lat="46.657140000" lon="-71.836300000">
<ele>0</ele>
<time>2026-09-04T06:41:52Z</time>
</trkpt>
<trkpt lat="46.656870000" lon="-71.835980000">
<ele>0</ele>
<time>2026-09-04T06:41:53Z</time>
</trkpt>
<trkpt lat="46.656480000" lon="-71.835390000">
<ele>0</ele>
<time>2026-09-04T06:41:54Z</time>
</trkpt>
<trkpt lat="46.655780000" lon="-71.834660000">
<ele>0</ele>
<time>2026-09-04T06:41:55Z</time>
</trkpt>
<trkpt lat="46.655640000" lon="-71.834540000">
<ele>0</ele>
<time>2026-09-04T06:41:56Z</time>
</trkpt>
<trkpt lat="46.655450000" lon="-71.834300000">
<ele>0</ele>
<time>2026-09-04T06:41:57Z</time>
</trkpt>
<trkpt lat="46.655400000" lon="-71.834190000">
<ele>0</ele>
<time>2026-09-04T06:41:58Z</time>
</trkpt>
<trkpt lat="46.655360000" lon="-71.834020000">
<ele>0</ele>
<time>2026-09-04T06:41:59Z</time>
</trkpt>
<trkpt lat="46.655360000" lon="-71.833850000">
<ele>0</ele>
<time>2026-09-04T06:42:00Z</time>
</trkpt>
<trkpt lat="46.655380000" lon="-71.833750000">
<ele>0</ele>
<time>2026-09-04T06:42:01Z</time>
</trkpt>
<trkpt lat="46.655340000" lon="-71.833760000">
<ele>0</ele>
<time>2026-09-04T06:42:02Z</time>
</trkpt>
<trkpt lat="46.655290000" lon="-71.833710000">
<ele>0</ele>
<time>2026-09-04T06:42:03Z</time>
</trkpt>
<trkpt lat="46.655230000" lon="-71.833630000">
<ele>0</ele>
<time>2026-09-04T06:42:04Z</time>
</trkpt>
<trkpt lat="46.654900000" lon="-71.833210000">
<ele>0</ele>
<time>2026-09-04T06:42:05Z</time>
</trkpt>
<trkpt lat="46.654660000" lon="-71.832970000">
<ele>0</ele>
<time>2026-09-04T06:42:06Z</time>
</trkpt>
<trkpt lat="46.654220000" lon="-71.832540000">
<ele>0</ele>
<time>2026-09-04T06:42:07Z</time>
</trkpt>
<trkpt lat="46.653980000" lon="-71.832330000">
<ele>0</ele>
<time>2026-09-04T06:42:08Z</time>
</trkpt>
<trkpt lat="46.653310000" lon="-71.831560000">
<ele>0</ele>
<time>2026-09-04T06:42:09Z</time>
</trkpt>
<trkpt lat="46.652500000" lon="-71.830590000">
<ele>0</ele>
<time>2026-09-04T06:42:10Z</time>
</trkpt>
<trkpt lat="46.652080000" lon="-71.830080000">
<ele>0</ele>
<time>2026-09-04T06:42:11Z</time>
</trkpt>
<trkpt lat="46.651660000" lon="-71.829620000">
<ele>0</ele>
<time>2026-09-04T06:42:12Z</time>
</trkpt>
<trkpt lat="46.651070000" lon="-71.828970000">
<ele>0</ele>
<time>2026-09-04T06:42:13Z</time>
</trkpt>
<trkpt lat="46.650850000" lon="-71.828710000">
<ele>0</ele>
<time>2026-09-04T06:42:14Z</time>
</trkpt>
<trkpt lat="46.650780000" lon="-71.828710000">
<ele>0</ele>
<time>2026-09-04T06:42:15Z</time>
</trkpt>
<trkpt lat="46.650660000" lon="-71.828610000">
<ele>0</ele>
<time>2026-09-04T06:42:16Z</time>
</trkpt>
<trkpt lat="46.650250000" lon="-71.828140000">
<ele>0</ele>
<time>2026-09-04T06:42:17Z</time>
</trkpt>
<trkpt lat="46.649960000" lon="-71.827890000">
<ele>0</ele>
<time>2026-09-04T06:42:18Z</time>
</trkpt>
<trkpt lat="46.649560000" lon="-71.827620000">
<ele>0</ele>
<time>2026-09-04T06:42:19Z</time>
</trkpt>
<trkpt lat="46.648700000" lon="-71.827320000">
<ele>0</ele>
<time>2026-09-04T06:42:20Z</time>
</trkpt>
<trkpt lat="46.647670000" lon="-71.826960000">
<ele>0</ele>
<time>2026-09-04T06:42:21Z</time>
</trkpt>
<trkpt lat="46.647350000" lon="-71.826860000">
<ele>0</ele>
<time>2026-09-04T06:42:22Z</time>
</trkpt>
<trkpt lat="46.647070000" lon="-71.826840000">
<ele>0</ele>
<time>2026-09-04T06:42:23Z</time>
</trkpt>
<trkpt lat="46.646900000" lon="-71.826850000">
<ele>0</ele>
<time>2026-09-04T06:42:24Z</time>
</trkpt>
<trkpt lat="46.646660000" lon="-71.826920000">
<ele>0</ele>
<time>2026-09-04T06:42:25Z</time>
</trkpt>
<trkpt lat="46.646480000" lon="-71.827060000">
<ele>0</ele>
<time>2026-09-04T06:42:26Z</time>
</trkpt>
<trkpt lat="46.646090000" lon="-71.826500000">
<ele>0</ele>
<time>2026-09-04T06:42:27Z</time>
</trkpt>
<trkpt lat="46.645680000" lon="-71.825860000">
<ele>0</ele>
<time>2026-09-04T06:42:28Z</time>
</trkpt>
<trkpt lat="46.645680000" lon="-71.825860000">
<ele>0</ele>
<time>2026-09-04T06:42:29Z</time>
</trkpt>
<trkpt lat="46.645290000" lon="-71.825230000">
<ele>0</ele>
<time>2026-09-04T06:42:30Z</time>
</trkpt>
<trkpt lat="46.644510000" lon="-71.823860000">
<ele>0</ele>
<time>2026-09-04T06:42:31Z</time>
</trkpt>
<trkpt lat="46.643060000" lon="-71.821360000">
<ele>0</ele>
<time>2026-09-04T06:42:32Z</time>
</trkpt>
<trkpt lat="46.641260000" lon="-71.818160000">
<ele>0</ele>
<time>2026-09-04T06:42:33Z</time>
</trkpt>
<trkpt lat="46.639590000" lon="-71.815240000">
<ele>0</ele>
<time>2026-09-04T06:42:34Z</time>
</trkpt>
<trkpt lat="46.638740000" lon="-71.813750000">
<ele>0</ele>
<time>2026-09-04T06:42:35Z</time>
</trkpt>
<trkpt lat="46.638490000" lon="-71.813260000">
<ele>0</ele>
<time>2026-09-04T06:42:36Z</time>
</trkpt>
<trkpt lat="46.638180000" lon="-71.812490000">
<ele>0</ele>
<time>2026-09-04T06:42:37Z</time>
</trkpt>
<trkpt lat="46.637660000" lon="-71.811010000">
<ele>0</ele>
<time>2026-09-04T06:42:38Z</time>
</trkpt>
<trkpt lat="46.636670000" lon="-71.808080000">
<ele>0</ele>
<time>2026-09-04T06:42:39Z</time>
</trkpt>
<trkpt lat="46.636220000" lon="-71.806980000">
<ele>0</ele>
<time>2026-09-04T06:42:40Z</time>
</trkpt>
<trkpt lat="46.635940000" lon="-71.806370000">
<ele>0</ele>
<time>2026-09-04T06:42:41Z</time>
</trkpt>
<trkpt lat="46.634180000" lon="-71.802700000">
<ele>0</ele>
<time>2026-09-04T06:42:42Z</time>
</trkpt>
<trkpt lat="46.633000000" lon="-71.800200000">
<ele>0</ele>
<time>2026-09-04T06:42:43Z</time>
</trkpt>
<trkpt lat="46.632390000" lon="-71.798910000">
<ele>0</ele>
<time>2026-09-04T06:42:44Z</time>
</trkpt>
<trkpt lat="46.632070000" lon="-71.798210000">
<ele>0</ele>
<time>2026-09-04T06:42:45Z</time>
</trkpt>
<trkpt lat="46.631900000" lon="-71.797720000">
<ele>0</ele>
<time>2026-09-04T06:42:46Z</time>
</trkpt>
<trkpt lat="46.631740000" lon="-71.797150000">
<ele>0</ele>
<time>2026-09-04T06:42:47Z</time>
</trkpt>
<trkpt lat="46.631660000" lon="-71.796740000">
<ele>0</ele>
<time>2026-09-04T06:42:48Z</time>
</trkpt>
<trkpt lat="46.631610000" lon="-71.796120000">
<ele>0</ele>
<time>2026-09-04T06:42:49Z</time>
</trkpt>
<trkpt lat="46.631440000" lon="-71.794280000">
<ele>0</ele>
<time>2026-09-04T06:42:50Z</time>
</trkpt>
<trkpt lat="46.631310000" lon="-71.793210000">
<ele>0</ele>
<time>2026-09-04T06:42:51Z</time>
</trkpt>
<trkpt lat="46.631240000" lon="-71.792800000">
<ele>0</ele>
<time>2026-09-04T06:42:52Z</time>
</trkpt>
<trkpt lat="46.631000000" lon="-71.791700000">
<ele>0</ele>
<time>2026-09-04T06:42:53Z</time>
</trkpt>
<trkpt lat="46.630220000" lon="-71.788500000">
<ele>0</ele>
<time>2026-09-04T06:42:54Z</time>
</trkpt>
<trkpt lat="46.629430000" lon="-71.785300000">
<ele>0</ele>
<time>2026-09-04T06:42:55Z</time>
</trkpt>
<trkpt lat="46.628850000" lon="-71.783100000">
<ele>0</ele>
<time>2026-09-04T06:42:56Z</time>
</trkpt>
<trkpt lat="46.628330000" lon="-71.781000000">
<ele>0</ele>
<time>2026-09-04T06:42:57Z</time>
</trkpt>
<trkpt lat="46.628110000" lon="-71.780020000">
<ele>0</ele>
<time>2026-09-04T06:42:58Z</time>
</trkpt>
<trkpt lat="46.627740000" lon="-71.778480000">
<ele>0</ele>
<time>2026-09-04T06:42:59Z</time>
</trkpt>
<trkpt lat="46.627590000" lon="-71.777720000">
<ele>0</ele>
<time>2026-09-04T06:43:00Z</time>
</trkpt>
<trkpt lat="46.627500000" lon="-71.777070000">
<ele>0</ele>
<time>2026-09-04T06:43:01Z</time>
</trkpt>
<trkpt lat="46.627320000" lon="-71.775250000">
<ele>0</ele>
<time>2026-09-04T06:43:02Z</time>
</trkpt>
<trkpt lat="46.626880000" lon="-71.770100000">
<ele>0</ele>
<time>2026-09-04T06:43:03Z</time>
</trkpt>
<trkpt lat="46.626590000" lon="-71.766800000">
<ele>0</ele>
<time>2026-09-04T06:43:04Z</time>
</trkpt>
<trkpt lat="46.626540000" lon="-71.766260000">
<ele>0</ele>
<time>2026-09-04T06:43:05Z</time>
</trkpt>
<trkpt lat="46.626420000" lon="-71.765510000">
<ele>0</ele>
<time>2026-09-04T06:43:06Z</time>
</trkpt>
<trkpt lat="46.626180000" lon="-71.764250000">
<ele>0</ele>
<time>2026-09-04T06:43:07Z</time>
</trkpt>
<trkpt lat="46.625520000" lon="-71.760980000">
<ele>0</ele>
<time>2026-09-04T06:43:08Z</time>
</trkpt>
<trkpt lat="46.625170000" lon="-71.758950000">
<ele>0</ele>
<time>2026-09-04T06:43:09Z</time>
</trkpt>
<trkpt lat="46.625020000" lon="-71.757750000">
<ele>0</ele>
<time>2026-09-04T06:43:10Z</time>
</trkpt>
<trkpt lat="46.624840000" lon="-71.755870000">
<ele>0</ele>
<time>2026-09-04T06:43:11Z</time>
</trkpt>
<trkpt lat="46.624740000" lon="-71.754870000">
<ele>0</ele>
<time>2026-09-04T06:43:12Z</time>
</trkpt>
<trkpt lat="46.624740000" lon="-71.754870000">
<ele>0</ele>
<time>2026-09-04T06:43:13Z</time>
</trkpt>
<trkpt lat="46.624550000" lon="-71.752850000">
<ele>0</ele>
<time>2026-09-04T06:43:14Z</time>
</trkpt>
<trkpt lat="46.624460000" lon="-71.751340000">
<ele>0</ele>
<time>2026-09-04T06:43:15Z</time>
</trkpt>
<trkpt lat="46.624440000" lon="-71.749290000">
<ele>0</ele>
<time>2026-09-04T06:43:16Z</time>
</trkpt>
<trkpt lat="46.624380000" lon="-71.747150000">
<ele>0</ele>
<time>2026-09-04T06:43:17Z</time>
</trkpt>
<trkpt lat="46.624330000" lon="-71.746620000">
<ele>0</ele>
<time>2026-09-04T06:43:18Z</time>
</trkpt>
<trkpt lat="46.624290000" lon="-71.746320000">
<ele>0</ele>
<time>2026-09-04T06:43:19Z</time>
</trkpt>
<trkpt lat="46.624220000" lon="-71.745980000">
<ele>0</ele>
<time>2026-09-04T06:43:20Z</time>
</trkpt>
<trkpt lat="46.623700000" lon="-71.744170000">
<ele>0</ele>
<time>2026-09-04T06:43:21Z</time>
</trkpt>
<trkpt lat="46.623070000" lon="-71.741980000">
<ele>0</ele>
<time>2026-09-04T06:43:22Z</time>
</trkpt>
<trkpt lat="46.622720000" lon="-71.740860000">
<ele>0</ele>
<time>2026-09-04T06:43:23Z</time>
</trkpt>
<trkpt lat="46.622650000" lon="-71.740430000">
<ele>0</ele>
<time>2026-09-04T06:43:24Z</time>
</trkpt>
<trkpt lat="46.622640000" lon="-71.740190000">
<ele>0</ele>
<time>2026-09-04T06:43:25Z</time>
</trkpt>
<trkpt lat="46.622680000" lon="-71.738340000">
<ele>0</ele>
<time>2026-09-04T06:43:26Z</time>
</trkpt>
<trkpt lat="46.622750000" lon="-71.737330000">
<ele>0</ele>
<time>2026-09-04T06:43:27Z</time>
</trkpt>
<trkpt lat="46.622810000" lon="-71.736960000">
<ele>0</ele>
<time>2026-09-04T06:43:28Z</time>
</trkpt>
<trkpt lat="46.622900000" lon="-71.736600000">
<ele>0</ele>
<time>2026-09-04T06:43:29Z</time>
</trkpt>
<trkpt lat="46.623000000" lon="-71.735890000">
<ele>0</ele>
<time>2026-09-04T06:43:30Z</time>
</trkpt>
<trkpt lat="46.623140000" lon="-71.735150000">
<ele>0</ele>
<time>2026-09-04T06:43:31Z</time>
</trkpt>
<trkpt lat="46.623290000" lon="-71.734580000">
<ele>0</ele>
<time>2026-09-04T06:43:32Z</time>
</trkpt>
<trkpt lat="46.623600000" lon="-71.733640000">
<ele>0</ele>
<time>2026-09-04T06:43:33Z</time>
</trkpt>
<trkpt lat="46.623660000" lon="-71.733390000">
<ele>0</ele>
<time>2026-09-04T06:43:34Z</time>
</trkpt>
<trkpt lat="46.623360000" lon="-71.733000000">
<ele>0</ele>
<time>2026-09-04T06:43:35Z</time>
</trkpt>
<trkpt lat="46.622360000" lon="-71.731590000">
<ele>0</ele>
<time>2026-09-04T06:43:36Z</time>
</trkpt>
<trkpt lat="46.621170000" lon="-71.729950000">
<ele>0</ele>
<time>2026-09-04T06:43:37Z</time>
</trkpt>
<trkpt lat="46.621170000" lon="-71.729950000">
<ele>0</ele>
<time>2026-09-04T06:43:38Z</time>
</trkpt>
<trkpt lat="46.619210000" lon="-71.727230000">
<ele>0</ele>
<time>2026-09-04T06:43:39Z</time>
</trkpt>
<trkpt lat="46.615630000" lon="-71.722290000">
<ele>0</ele>
<time>2026-09-04T06:43:40Z</time>
</trkpt>
<trkpt lat="46.612950000" lon="-71.718570000">
<ele>0</ele>
<time>2026-09-04T06:43:41Z</time>
</trkpt>
<trkpt lat="46.612590000" lon="-71.718170000">
<ele>0</ele>
<time>2026-09-04T06:43:42Z</time>
</trkpt>
<trkpt lat="46.612190000" lon="-71.717860000">
<ele>0</ele>
<time>2026-09-04T06:43:43Z</time>
</trkpt>
<trkpt lat="46.611760000" lon="-71.717730000">
<ele>0</ele>
<time>2026-09-04T06:43:44Z</time>
</trkpt>
<trkpt lat="46.611440000" lon="-71.717720000">
<ele>0</ele>
<time>2026-09-04T06:43:45Z</time>
</trkpt>
<trkpt lat="46.611190000" lon="-71.717760000">
<ele>0</ele>
<time>2026-09-04T06:43:46Z</time>
</trkpt>
<trkpt lat="46.610920000" lon="-71.717860000">
<ele>0</ele>
<time>2026-09-04T06:43:47Z</time>
</trkpt>
<trkpt lat="46.610740000" lon="-71.717960000">
<ele>0</ele>
<time>2026-09-04T06:43:48Z</time>
</trkpt>
<trkpt lat="46.610440000" lon="-71.718180000">
<ele>0</ele>
<time>2026-09-04T06:43:49Z</time>
</trkpt>
<trkpt lat="46.609760000" lon="-71.718760000">
<ele>0</ele>
<time>2026-09-04T06:43:50Z</time>
</trkpt>
<trkpt lat="46.609500000" lon="-71.718970000">
<ele>0</ele>
<time>2026-09-04T06:43:51Z</time>
</trkpt>
<trkpt lat="46.609270000" lon="-71.719110000">
<ele>0</ele>
<time>2026-09-04T06:43:52Z</time>
</trkpt>
<trkpt lat="46.609050000" lon="-71.719210000">
<ele>0</ele>
<time>2026-09-04T06:43:53Z</time>
</trkpt>
<trkpt lat="46.608780000" lon="-71.719290000">
<ele>0</ele>
<time>2026-09-04T06:43:54Z</time>
</trkpt>
<trkpt lat="46.608640000" lon="-71.719300000">
<ele>0</ele>
<time>2026-09-04T06:43:55Z</time>
</trkpt>
<trkpt lat="46.608370000" lon="-71.719280000">
<ele>0</ele>
<time>2026-09-04T06:43:56Z</time>
</trkpt>
<trkpt lat="46.608090000" lon="-71.719210000">
<ele>0</ele>
<time>2026-09-04T06:43:57Z</time>
</trkpt>
<trkpt lat="46.607940000" lon="-71.719150000">
<ele>0</ele>
<time>2026-09-04T06:43:58Z</time>
</trkpt>
<trkpt lat="46.607680000" lon="-71.719000000">
<ele>0</ele>
<time>2026-09-04T06:43:59Z</time>
</trkpt>
<trkpt lat="46.607470000" lon="-71.718800000">
<ele>0</ele>
<time>2026-09-04T06:44:00Z</time>
</trkpt>
<trkpt lat="46.607290000" lon="-71.718590000">
<ele>0</ele>
<time>2026-09-04T06:44:01Z</time>
</trkpt>
<trkpt lat="46.606570000" lon="-71.717630000">
<ele>0</ele>
<time>2026-09-04T06:44:02Z</time>
</trkpt>
<trkpt lat="46.604770000" lon="-71.715180000">
<ele>0</ele>
<time>2026-09-04T06:44:03Z</time>
</trkpt>
<trkpt lat="46.603390000" lon="-71.713320000">
<ele>0</ele>
<time>2026-09-04T06:44:04Z</time>
</trkpt>
<trkpt lat="46.603250000" lon="-71.713150000">
<ele>0</ele>
<time>2026-09-04T06:44:05Z</time>
</trkpt>
<trkpt lat="46.603010000" lon="-71.712910000">
<ele>0</ele>
<time>2026-09-04T06:44:06Z</time>
</trkpt>
<trkpt lat="46.602650000" lon="-71.712600000">
<ele>0</ele>
<time>2026-09-04T06:44:07Z</time>
</trkpt>
<trkpt lat="46.602070000" lon="-71.712200000">
<ele>0</ele>
<time>2026-09-04T06:44:08Z</time>
</trkpt>
<trkpt lat="46.600840000" lon="-71.711390000">
<ele>0</ele>
<time>2026-09-04T06:44:09Z</time>
</trkpt>
<trkpt lat="46.600570000" lon="-71.711250000">
<ele>0</ele>
<time>2026-09-04T06:44:10Z</time>
</trkpt>
<trkpt lat="46.600450000" lon="-71.711130000">
<ele>0</ele>
<time>2026-09-04T06:44:11Z</time>
</trkpt>
<trkpt lat="46.600120000" lon="-71.710820000">
<ele>0</ele>
<time>2026-09-04T06:44:12Z</time>
</trkpt>
<trkpt lat="46.600070000" lon="-71.711050000">
<ele>0</ele>
<time>2026-09-04T06:44:13Z</time>
</trkpt>
<trkpt lat="46.600020000" lon="-71.711490000">
<ele>0</ele>
<time>2026-09-04T06:44:14Z</time>
</trkpt>
<trkpt lat="46.600030000" lon="-71.712830000">
<ele>0</ele>
<time>2026-09-04T06:44:15Z</time>
</trkpt>
<trkpt lat="46.600040000" lon="-71.715160000">
<ele>0</ele>
<time>2026-09-04T06:44:16Z</time>
</trkpt>
<trkpt lat="46.600040000" lon="-71.715160000">
<ele>0</ele>
<time>2026-09-04T06:44:17Z</time>
</trkpt>
<trkpt lat="46.600120000" lon="-71.725460000">
<ele>0</ele>
<time>2026-09-04T06:44:18Z</time>
</trkpt>
<trkpt lat="46.600120000" lon="-71.725890000">
<ele>0</ele>
<time>2026-09-04T06:44:19Z</time>
</trkpt>
<trkpt lat="46.600110000" lon="-71.726440000">
<ele>0</ele>
<time>2026-09-04T06:44:20Z</time>
</trkpt>
<trkpt lat="46.600070000" lon="-71.727020000">
<ele>0</ele>
<time>2026-09-04T06:44:21Z</time>
</trkpt>
<trkpt lat="46.599950000" lon="-71.727790000">
<ele>0</ele>
<time>2026-09-04T06:44:22Z</time>
</trkpt>
<trkpt lat="46.599830000" lon="-71.728270000">
<ele>0</ele>
<time>2026-09-04T06:44:23Z</time>
</trkpt>
<trkpt lat="46.599510000" lon="-71.729240000">
<ele>0</ele>
<time>2026-09-04T06:44:24Z</time>
</trkpt>
<trkpt lat="46.599170000" lon="-71.730140000">
<ele>0</ele>
<time>2026-09-04T06:44:25Z</time>
</trkpt>
<trkpt lat="46.599040000" lon="-71.730560000">
<ele>0</ele>
<time>2026-09-04T06:44:26Z</time>
</trkpt>
<trkpt lat="46.598850000" lon="-71.731330000">
<ele>0</ele>
<time>2026-09-04T06:44:27Z</time>
</trkpt>
<trkpt lat="46.598750000" lon="-71.731930000">
<ele>0</ele>
<time>2026-09-04T06:44:28Z</time>
</trkpt>
<trkpt lat="46.598500000" lon="-71.733720000">
<ele>0</ele>
<time>2026-09-04T06:44:29Z</time>
</trkpt>
<trkpt lat="46.597970000" lon="-71.737630000">
<ele>0</ele>
<time>2026-09-04T06:44:30Z</time>
</trkpt>
<trkpt lat="46.597760000" lon="-71.739110000">
<ele>0</ele>
<time>2026-09-04T06:44:31Z</time>
</trkpt>
<trkpt lat="46.597600000" lon="-71.739800000">
<ele>0</ele>
<time>2026-09-04T06:44:32Z</time>
</trkpt>
<trkpt lat="46.597440000" lon="-71.740270000">
<ele>0</ele>
<time>2026-09-04T06:44:33Z</time>
</trkpt>
<trkpt lat="46.597210000" lon="-71.740780000">
<ele>0</ele>
<time>2026-09-04T06:44:34Z</time>
</trkpt>
<trkpt lat="46.597050000" lon="-71.741060000">
<ele>0</ele>
<time>2026-09-04T06:44:35Z</time>
</trkpt>
<trkpt lat="46.596760000" lon="-71.741490000">
<ele>0</ele>
<time>2026-09-04T06:44:36Z</time>
</trkpt>
<trkpt lat="46.596190000" lon="-71.742280000">
<ele>0</ele>
<time>2026-09-04T06:44:37Z</time>
</trkpt>
<trkpt lat="46.595870000" lon="-71.742770000">
<ele>0</ele>
<time>2026-09-04T06:44:38Z</time>
</trkpt>
<trkpt lat="46.595440000" lon="-71.743520000">
<ele>0</ele>
<time>2026-09-04T06:44:39Z</time>
</trkpt>
<trkpt lat="46.594980000" lon="-71.744470000">
<ele>0</ele>
<time>2026-09-04T06:44:40Z</time>
</trkpt>
<trkpt lat="46.594470000" lon="-71.745690000">
<ele>0</ele>
<time>2026-09-04T06:44:41Z</time>
</trkpt>
<trkpt lat="46.594110000" lon="-71.746480000">
<ele>0</ele>
<time>2026-09-04T06:44:42Z</time>
</trkpt>
<trkpt lat="46.593730000" lon="-71.747190000">
<ele>0</ele>
<time>2026-09-04T06:44:43Z</time>
</trkpt>
<trkpt lat="46.593080000" lon="-71.748230000">
<ele>0</ele>
<time>2026-09-04T06:44:44Z</time>
</trkpt>
<trkpt lat="46.592500000" lon="-71.749120000">
<ele>0</ele>
<time>2026-09-04T06:44:45Z</time>
</trkpt>
<trkpt lat="46.592020000" lon="-71.749870000">
<ele>0</ele>
<time>2026-09-04T06:44:46Z</time>
</trkpt>
<trkpt lat="46.591700000" lon="-71.750420000">
<ele>0</ele>
<time>2026-09-04T06:44:47Z</time>
</trkpt>
<trkpt lat="46.590760000" lon="-71.752110000">
<ele>0</ele>
<time>2026-09-04T06:44:48Z</time>
</trkpt>
<trkpt lat="46.589310000" lon="-71.754680000">
<ele>0</ele>
<time>2026-09-04T06:44:49Z</time>
</trkpt>
<trkpt lat="46.587180000" lon="-71.758450000">
<ele>0</ele>
<time>2026-09-04T06:44:50Z</time>
</trkpt>
<trkpt lat="46.581630000" lon="-71.768310000">
<ele>0</ele>
<time>2026-09-04T06:44:51Z</time>
</trkpt>
<trkpt lat="46.579620000" lon="-71.771860000">
<ele>0</ele>
<time>2026-09-04T06:44:52Z</time>
</trkpt>
<trkpt lat="46.578640000" lon="-71.773600000">
<ele>0</ele>
<time>2026-09-04T06:44:53Z</time>
</trkpt>
<trkpt lat="46.578190000" lon="-71.774500000">
<ele>0</ele>
<time>2026-09-04T06:44:54Z</time>
</trkpt>
<trkpt lat="46.577890000" lon="-71.775290000">
<ele>0</ele>
<time>2026-09-04T06:44:55Z</time>
</trkpt>
<trkpt lat="46.577720000" lon="-71.775770000">
<ele>0</ele>
<time>2026-09-04T06:44:56Z</time>
</trkpt>
<trkpt lat="46.577290000" lon="-71.777050000">
<ele>0</ele>
<time>2026-09-04T06:44:57Z</time>
</trkpt>
<trkpt lat="46.577120000" lon="-71.777720000">
<ele>0</ele>
<time>2026-09-04T06:44:58Z</time>
</trkpt>
<trkpt lat="46.576450000" lon="-71.779720000">
<ele>0</ele>
<time>2026-09-04T06:44:59Z</time>
</trkpt>
<trkpt lat="46.576010000" lon="-71.781040000">
<ele>0</ele>
<time>2026-09-04T06:45:00Z</time>
</trkpt>
<trkpt lat="46.575280000" lon="-71.783190000">
<ele>0</ele>
<time>2026-09-04T06:45:01Z</time>
</trkpt>
<trkpt lat="46.574340000" lon="-71.786130000">
<ele>0</ele>
<time>2026-09-04T06:45:02Z</time>
</trkpt>
<trkpt lat="46.574120000" lon="-71.786860000">
<ele>0</ele>
<time>2026-09-04T06:45:03Z</time>
</trkpt>
<trkpt lat="46.573940000" lon="-71.787650000">
<ele>0</ele>
<time>2026-09-04T06:45:04Z</time>
</trkpt>
<trkpt lat="46.573780000" lon="-71.788670000">
<ele>0</ele>
<time>2026-09-04T06:45:05Z</time>
</trkpt>
<trkpt lat="46.573710000" lon="-71.789670000">
<ele>0</ele>
<time>2026-09-04T06:45:06Z</time>
</trkpt>
<trkpt lat="46.573610000" lon="-71.791530000">
<ele>0</ele>
<time>2026-09-04T06:45:07Z</time>
</trkpt>
<trkpt lat="46.573460000" lon="-71.794680000">
<ele>0</ele>
<time>2026-09-04T06:45:08Z</time>
</trkpt>
<trkpt lat="46.573240000" lon="-71.798890000">
<ele>0</ele>
<time>2026-09-04T06:45:09Z</time>
</trkpt>
<trkpt lat="46.573190000" lon="-71.800470000">
<ele>0</ele>
<time>2026-09-04T06:45:10Z</time>
</trkpt>
<trkpt lat="46.573170000" lon="-71.801540000">
<ele>0</ele>
<time>2026-09-04T06:45:11Z</time>
</trkpt>
<trkpt lat="46.573260000" lon="-71.804070000">
<ele>0</ele>
<time>2026-09-04T06:45:12Z</time>
</trkpt>
<trkpt lat="46.573340000" lon="-71.806130000">
<ele>0</ele>
<time>2026-09-04T06:45:13Z</time>
</trkpt>
<trkpt lat="46.573340000" lon="-71.807220000">
<ele>0</ele>
<time>2026-09-04T06:45:14Z</time>
</trkpt>
<trkpt lat="46.573290000" lon="-71.808020000">
<ele>0</ele>
<time>2026-09-04T06:45:15Z</time>
</trkpt>
<trkpt lat="46.572950000" lon="-71.810760000">
<ele>0</ele>
<time>2026-09-04T06:45:16Z</time>
</trkpt>
<trkpt lat="46.572560000" lon="-71.813850000">
<ele>0</ele>
<time>2026-09-04T06:45:17Z</time>
</trkpt>
<trkpt lat="46.572430000" lon="-71.815080000">
<ele>0</ele>
<time>2026-09-04T06:45:18Z</time>
</trkpt>
<trkpt lat="46.572290000" lon="-71.816620000">
<ele>0</ele>
<time>2026-09-04T06:45:19Z</time>
</trkpt>
<trkpt lat="46.572030000" lon="-71.820310000">
<ele>0</ele>
<time>2026-09-04T06:45:20Z</time>
</trkpt>
<trkpt lat="46.571600000" lon="-71.826240000">
<ele>0</ele>
<time>2026-09-04T06:45:21Z</time>
</trkpt>
<trkpt lat="46.571520000" lon="-71.827050000">
<ele>0</ele>
<time>2026-09-04T06:45:22Z</time>
</trkpt>
<trkpt lat="46.571470000" lon="-71.827330000">
<ele>0</ele>
<time>2026-09-04T06:45:23Z</time>
</trkpt>
<trkpt lat="46.571450000" lon="-71.827450000">
<ele>0</ele>
<time>2026-09-04T06:45:24Z</time>
</trkpt>
<trkpt lat="46.571850000" lon="-71.827510000">
<ele>0</ele>
<time>2026-09-04T06:45:25Z</time>
</trkpt>
<trkpt lat="46.572030000" lon="-71.827530000">
<ele>0</ele>
<time>2026-09-04T06:45:26Z</time>
</trkpt>
<trkpt lat="46.572060000" lon="-71.827510000">
<ele>0</ele>
<time>2026-09-04T06:45:27Z</time>
</trkpt>
<trkpt lat="46.572060000" lon="-71.827510000">
<ele>0</ele>
<time>2026-09-04T06:45:28Z</time>
</trkpt>
<trkpt lat="46.571940000" lon="-71.827520000">
<ele>0</ele>
<time>2026-09-04T06:45:29Z</time>
</trkpt>
<trkpt lat="46.571450000" lon="-71.827450000">
<ele>0</ele>
<time>2026-09-04T06:45:30Z</time>
</trkpt>
<trkpt lat="46.571270000" lon="-71.828450000">
<ele>0</ele>
<time>2026-09-04T06:45:31Z</time>
</trkpt>
<trkpt lat="46.570540000" lon="-71.831810000">
<ele>0</ele>
<time>2026-09-04T06:45:32Z</time>
</trkpt>
<trkpt lat="46.570060000" lon="-71.834080000">
<ele>0</ele>
<time>2026-09-04T06:45:33Z</time>
</trkpt>
<trkpt lat="46.569900000" lon="-71.834600000">
<ele>0</ele>
<time>2026-09-04T06:45:34Z</time>
</trkpt>
<trkpt lat="46.569340000" lon="-71.835920000">
<ele>0</ele>
<time>2026-09-04T06:45:35Z</time>
</trkpt>
<trkpt lat="46.569250000" lon="-71.836170000">
<ele>0</ele>
<time>2026-09-04T06:45:36Z</time>
</trkpt>
<trkpt lat="46.569200000" lon="-71.836620000">
<ele>0</ele>
<time>2026-09-04T06:45:37Z</time>
</trkpt>
<trkpt lat="46.569140000" lon="-71.837110000">
<ele>0</ele>
<time>2026-09-04T06:45:38Z</time>
</trkpt>
<trkpt lat="46.569070000" lon="-71.837340000">
<ele>0</ele>
<time>2026-09-04T06:45:39Z</time>
</trkpt>
<trkpt lat="46.568940000" lon="-71.837640000">
<ele>0</ele>
<time>2026-09-04T06:45:40Z</time>
</trkpt>
<trkpt lat="46.568600000" lon="-71.838370000">
<ele>0</ele>
<time>2026-09-04T06:45:41Z</time>
</trkpt>
<trkpt lat="46.568290000" lon="-71.838980000">
<ele>0</ele>
<time>2026-09-04T06:45:42Z</time>
</trkpt>
<trkpt lat="46.568290000" lon="-71.838980000">
<ele>0</ele>
<time>2026-09-04T06:45:43Z</time>
</trkpt>
<trkpt lat="46.566940000" lon="-71.841450000">
<ele>0</ele>
<time>2026-09-04T06:45:44Z</time>
</trkpt>
<trkpt lat="46.566050000" lon="-71.843220000">
<ele>0</ele>
<time>2026-09-04T06:45:45Z</time>
</trkpt>
<trkpt lat="46.565590000" lon="-71.844250000">
<ele>0</ele>
<time>2026-09-04T06:45:46Z</time>
</trkpt>
<trkpt lat="46.565100000" lon="-71.845480000">
<ele>0</ele>
<time>2026-09-04T06:45:47Z</time>
</trkpt>
<trkpt lat="46.564750000" lon="-71.846490000">
<ele>0</ele>
<time>2026-09-04T06:45:48Z</time>
</trkpt>
<trkpt lat="46.564470000" lon="-71.847430000">
<ele>0</ele>
<time>2026-09-04T06:45:49Z</time>
</trkpt>
<trkpt lat="46.563770000" lon="-71.850130000">
<ele>0</ele>
<time>2026-09-04T06:45:50Z</time>
</trkpt>
<trkpt lat="46.563500000" lon="-71.851250000">
<ele>0</ele>
<time>2026-09-04T06:45:51Z</time>
</trkpt>
<trkpt lat="46.563220000" lon="-71.852300000">
<ele>0</ele>
<time>2026-09-04T06:45:52Z</time>
</trkpt>
<trkpt lat="46.562600000" lon="-71.854790000">
<ele>0</ele>
<time>2026-09-04T06:45:53Z</time>
</trkpt>
<trkpt lat="46.562460000" lon="-71.855400000">
<ele>0</ele>
<time>2026-09-04T06:45:54Z</time>
</trkpt>
<trkpt lat="46.562240000" lon="-71.856210000">
<ele>0</ele>
<time>2026-09-04T06:45:55Z</time>
</trkpt>
<trkpt lat="46.561230000" lon="-71.860150000">
<ele>0</ele>
<time>2026-09-04T06:45:56Z</time>
</trkpt>
<trkpt lat="46.560810000" lon="-71.861520000">
<ele>0</ele>
<time>2026-09-04T06:45:57Z</time>
</trkpt>
<trkpt lat="46.559830000" lon="-71.864250000">
<ele>0</ele>
<time>2026-09-04T06:45:58Z</time>
</trkpt>
<trkpt lat="46.559270000" lon="-71.865780000">
<ele>0</ele>
<time>2026-09-04T06:45:59Z</time>
</trkpt>
<trkpt lat="46.558940000" lon="-71.866590000">
<ele>0</ele>
<time>2026-09-04T06:46:00Z</time>
</trkpt>
<trkpt lat="46.558610000" lon="-71.867280000">
<ele>0</ele>
<time>2026-09-04T06:46:01Z</time>
</trkpt>
<trkpt lat="46.558320000" lon="-71.867790000">
<ele>0</ele>
<time>2026-09-04T06:46:02Z</time>
</trkpt>
<trkpt lat="46.556530000" lon="-71.870550000">
<ele>0</ele>
<time>2026-09-04T06:46:03Z</time>
</trkpt>
<trkpt lat="46.555750000" lon="-71.871690000">
<ele>0</ele>
<time>2026-09-04T06:46:04Z</time>
</trkpt>
<trkpt lat="46.555360000" lon="-71.872190000">
<ele>0</ele>
<time>2026-09-04T06:46:05Z</time>
</trkpt>
<trkpt lat="46.555010000" lon="-71.872600000">
<ele>0</ele>
<time>2026-09-04T06:46:06Z</time>
</trkpt>
<trkpt lat="46.554250000" lon="-71.873360000">
<ele>0</ele>
<time>2026-09-04T06:46:07Z</time>
</trkpt>
<trkpt lat="46.553910000" lon="-71.873680000">
<ele>0</ele>
<time>2026-09-04T06:46:08Z</time>
</trkpt>
<trkpt lat="46.553640000" lon="-71.873900000">
<ele>0</ele>
<time>2026-09-04T06:46:09Z</time>
</trkpt>
<trkpt lat="46.553160000" lon="-71.874260000">
<ele>0</ele>
<time>2026-09-04T06:46:10Z</time>
</trkpt>
<trkpt lat="46.552710000" lon="-71.874600000">
<ele>0</ele>
<time>2026-09-04T06:46:11Z</time>
</trkpt>
<trkpt lat="46.551640000" lon="-71.875420000">
<ele>0</ele>
<time>2026-09-04T06:46:12Z</time>
</trkpt>
<trkpt lat="46.550930000" lon="-71.876020000">
<ele>0</ele>
<time>2026-09-04T06:46:13Z</time>
</trkpt>
<trkpt lat="46.550580000" lon="-71.876290000">
<ele>0</ele>
<time>2026-09-04T06:46:14Z</time>
</trkpt>
<trkpt lat="46.549940000" lon="-71.876720000">
<ele>0</ele>
<time>2026-09-04T06:46:15Z</time>
</trkpt>
<trkpt lat="46.549630000" lon="-71.876950000">
<ele>0</ele>
<time>2026-09-04T06:46:16Z</time>
</trkpt>
<trkpt lat="46.549470000" lon="-71.877110000">
<ele>0</ele>
<time>2026-09-04T06:46:17Z</time>
</trkpt>
<trkpt lat="46.549330000" lon="-71.877270000">
<ele>0</ele>
<time>2026-09-04T06:46:18Z</time>
</trkpt>
<trkpt lat="46.549140000" lon="-71.877540000">
<ele>0</ele>
<time>2026-09-04T06:46:19Z</time>
</trkpt>
<trkpt lat="46.548840000" lon="-71.878040000">
<ele>0</ele>
<time>2026-09-04T06:46:20Z</time>
</trkpt>
<trkpt lat="46.548560000" lon="-71.878710000">
<ele>0</ele>
<time>2026-09-04T06:46:21Z</time>
</trkpt>
<trkpt lat="46.548420000" lon="-71.879120000">
<ele>0</ele>
<time>2026-09-04T06:46:22Z</time>
</trkpt>
<trkpt lat="46.548250000" lon="-71.879800000">
<ele>0</ele>
<time>2026-09-04T06:46:23Z</time>
</trkpt>
<trkpt lat="46.547960000" lon="-71.881030000">
<ele>0</ele>
<time>2026-09-04T06:46:24Z</time>
</trkpt>
<trkpt lat="46.547770000" lon="-71.881710000">
<ele>0</ele>
<time>2026-09-04T06:46:25Z</time>
</trkpt>
<trkpt lat="46.547510000" lon="-71.882430000">
<ele>0</ele>
<time>2026-09-04T06:46:26Z</time>
</trkpt>
<trkpt lat="46.547310000" lon="-71.882900000">
<ele>0</ele>
<time>2026-09-04T06:46:27Z</time>
</trkpt>
<trkpt lat="46.547020000" lon="-71.883450000">
<ele>0</ele>
<time>2026-09-04T06:46:28Z</time>
</trkpt>
<trkpt lat="46.546690000" lon="-71.884120000">
<ele>0</ele>
<time>2026-09-04T06:46:29Z</time>
</trkpt>
<trkpt lat="46.546320000" lon="-71.884920000">
<ele>0</ele>
<time>2026-09-04T06:46:30Z</time>
</trkpt>
<trkpt lat="46.545710000" lon="-71.886210000">
<ele>0</ele>
<time>2026-09-04T06:46:31Z</time>
</trkpt>
<trkpt lat="46.544820000" lon="-71.887620000">
<ele>0</ele>
<time>2026-09-04T06:46:32Z</time>
</trkpt>
<trkpt lat="46.544520000" lon="-71.888160000">
<ele>0</ele>
<time>2026-09-04T06:46:33Z</time>
</trkpt>
<trkpt lat="46.544230000" lon="-71.888750000">
<ele>0</ele>
<time>2026-09-04T06:46:34Z</time>
</trkpt>
<trkpt lat="46.544020000" lon="-71.889180000">
<ele>0</ele>
<time>2026-09-04T06:46:35Z</time>
</trkpt>
<trkpt lat="46.543740000" lon="-71.889850000">
<ele>0</ele>
<time>2026-09-04T06:46:36Z</time>
</trkpt>
<trkpt lat="46.543380000" lon="-71.890980000">
<ele>0</ele>
<time>2026-09-04T06:46:37Z</time>
</trkpt>
<trkpt lat="46.543090000" lon="-71.891930000">
<ele>0</ele>
<time>2026-09-04T06:46:38Z</time>
</trkpt>
<trkpt lat="46.542630000" lon="-71.893240000">
<ele>0</ele>
<time>2026-09-04T06:46:39Z</time>
</trkpt>
<trkpt lat="46.542290000" lon="-71.894340000">
<ele>0</ele>
<time>2026-09-04T06:46:40Z</time>
</trkpt>
<trkpt lat="46.542090000" lon="-71.895200000">
<ele>0</ele>
<time>2026-09-04T06:46:41Z</time>
</trkpt>
<trkpt lat="46.541920000" lon="-71.896360000">
<ele>0</ele>
<time>2026-09-04T06:46:42Z</time>
</trkpt>
<trkpt lat="46.541830000" lon="-71.897230000">
<ele>0</ele>
<time>2026-09-04T06:46:43Z</time>
</trkpt>
<trkpt lat="46.541710000" lon="-71.898990000">
<ele>0</ele>
<time>2026-09-04T06:46:44Z</time>
</trkpt>
<trkpt lat="46.541610000" lon="-71.900180000">
<ele>0</ele>
<time>2026-09-04T06:46:45Z</time>
</trkpt>
<trkpt lat="46.541590000" lon="-71.901280000">
<ele>0</ele>
<time>2026-09-04T06:46:46Z</time>
</trkpt>
<trkpt lat="46.541600000" lon="-71.901900000">
<ele>0</ele>
<time>2026-09-04T06:46:47Z</time>
</trkpt>
<trkpt lat="46.541670000" lon="-71.903650000">
<ele>0</ele>
<time>2026-09-04T06:46:48Z</time>
</trkpt>
<trkpt lat="46.541680000" lon="-71.904940000">
<ele>0</ele>
<time>2026-09-04T06:46:49Z</time>
</trkpt>
<trkpt lat="46.541650000" lon="-71.905740000">
<ele>0</ele>
<time>2026-09-04T06:46:50Z</time>
</trkpt>
<trkpt lat="46.541620000" lon="-71.906370000">
<ele>0</ele>
<time>2026-09-04T06:46:51Z</time>
</trkpt>
<trkpt lat="46.541530000" lon="-71.907180000">
<ele>0</ele>
<time>2026-09-04T06:46:52Z</time>
</trkpt>
<trkpt lat="46.541480000" lon="-71.907550000">
<ele>0</ele>
<time>2026-09-04T06:46:53Z</time>
</trkpt>
<trkpt lat="46.541340000" lon="-71.908120000">
<ele>0</ele>
<time>2026-09-04T06:46:54Z</time>
</trkpt>
<trkpt lat="46.541200000" lon="-71.908620000">
<ele>0</ele>
<time>2026-09-04T06:46:55Z</time>
</trkpt>
<trkpt lat="46.540780000" lon="-71.910330000">
<ele>0</ele>
<time>2026-09-04T06:46:56Z</time>
</trkpt>
<trkpt lat="46.540350000" lon="-71.912090000">
<ele>0</ele>
<time>2026-09-04T06:46:57Z</time>
</trkpt>
<trkpt lat="46.540160000" lon="-71.912810000">
<ele>0</ele>
<time>2026-09-04T06:46:58Z</time>
</trkpt>
<trkpt lat="46.539920000" lon="-71.913580000">
<ele>0</ele>
<time>2026-09-04T06:46:59Z</time>
</trkpt>
<trkpt lat="46.537840000" lon="-71.919670000">
<ele>0</ele>
<time>2026-09-04T06:47:00Z</time>
</trkpt>
<trkpt lat="46.537510000" lon="-71.920640000">
<ele>0</ele>
<time>2026-09-04T06:47:01Z</time>
</trkpt>
<trkpt lat="46.537410000" lon="-71.921060000">
<ele>0</ele>
<time>2026-09-04T06:47:02Z</time>
</trkpt>
<trkpt lat="46.537350000" lon="-71.921530000">
<ele>0</ele>
<time>2026-09-04T06:47:03Z</time>
</trkpt>
<trkpt lat="46.537350000" lon="-71.921920000">
<ele>0</ele>
<time>2026-09-04T06:47:04Z</time>
</trkpt>
<trkpt lat="46.537590000" lon="-71.924030000">
<ele>0</ele>
<time>2026-09-04T06:47:05Z</time>
</trkpt>
<trkpt lat="46.537850000" lon="-71.926130000">
<ele>0</ele>
<time>2026-09-04T06:47:06Z</time>
</trkpt>
<trkpt lat="46.538170000" lon="-71.927860000">
<ele>0</ele>
<time>2026-09-04T06:47:07Z</time>
</trkpt>
<trkpt lat="46.538590000" lon="-71.929940000">
<ele>0</ele>
<time>2026-09-04T06:47:08Z</time>
</trkpt>
<trkpt lat="46.538680000" lon="-71.930350000">
<ele>0</ele>
<time>2026-09-04T06:47:09Z</time>
</trkpt>
<trkpt lat="46.538760000" lon="-71.930630000">
<ele>0</ele>
<time>2026-09-04T06:47:10Z</time>
</trkpt>
<trkpt lat="46.538890000" lon="-71.931010000">
<ele>0</ele>
<time>2026-09-04T06:47:11Z</time>
</trkpt>
<trkpt lat="46.539060000" lon="-71.931390000">
<ele>0</ele>
<time>2026-09-04T06:47:12Z</time>
</trkpt>
<trkpt lat="46.539520000" lon="-71.932370000">
<ele>0</ele>
<time>2026-09-04T06:47:13Z</time>
</trkpt>
<trkpt lat="46.539840000" lon="-71.933090000">
<ele>0</ele>
<time>2026-09-04T06:47:14Z</time>
</trkpt>
<trkpt lat="46.540420000" lon="-71.934590000">
<ele>0</ele>
<time>2026-09-04T06:47:15Z</time>
</trkpt>
<trkpt lat="46.541050000" lon="-71.936480000">
<ele>0</ele>
<time>2026-09-04T06:47:16Z</time>
</trkpt>
<trkpt lat="46.541290000" lon="-71.937040000">
<ele>0</ele>
<time>2026-09-04T06:47:17Z</time>
</trkpt>
<trkpt lat="46.541580000" lon="-71.937620000">
<ele>0</ele>
<time>2026-09-04T06:47:18Z</time>
</trkpt>
<trkpt lat="46.541840000" lon="-71.938030000">
<ele>0</ele>
<time>2026-09-04T06:47:19Z</time>
</trkpt>
<trkpt lat="46.542000000" lon="-71.938250000">
<ele>0</ele>
<time>2026-09-04T06:47:20Z</time>
</trkpt>
<trkpt lat="46.542360000" lon="-71.938670000">
<ele>0</ele>
<time>2026-09-04T06:47:21Z</time>
</trkpt>
<trkpt lat="46.544480000" lon="-71.940910000">
<ele>0</ele>
<time>2026-09-04T06:47:22Z</time>
</trkpt>
<trkpt lat="46.544480000" lon="-71.940910000">
<ele>0</ele>
<time>2026-09-04T06:47:23Z</time>
</trkpt>
<trkpt lat="46.546000000" lon="-71.942520000">
<ele>0</ele>
<time>2026-09-04T06:47:24Z</time>
</trkpt>
<trkpt lat="46.546280000" lon="-71.942870000">
<ele>0</ele>
<time>2026-09-04T06:47:25Z</time>
</trkpt>
<trkpt lat="46.546560000" lon="-71.943340000">
<ele>0</ele>
<time>2026-09-04T06:47:26Z</time>
</trkpt>
<trkpt lat="46.546860000" lon="-71.944010000">
<ele>0</ele>
<time>2026-09-04T06:47:27Z</time>
</trkpt>
<trkpt lat="46.547100000" lon="-71.944610000">
<ele>0</ele>
<time>2026-09-04T06:47:28Z</time>
</trkpt>
<trkpt lat="46.548060000" lon="-71.947180000">
<ele>0</ele>
<time>2026-09-04T06:47:29Z</time>
</trkpt>
<trkpt lat="46.548440000" lon="-71.948190000">
<ele>0</ele>
<time>2026-09-04T06:47:30Z</time>
</trkpt>
<trkpt lat="46.548640000" lon="-71.948890000">
<ele>0</ele>
<time>2026-09-04T06:47:31Z</time>
</trkpt>
<trkpt lat="46.548760000" lon="-71.949470000">
<ele>0</ele>
<time>2026-09-04T06:47:32Z</time>
</trkpt>
<trkpt lat="46.548940000" lon="-71.950610000">
<ele>0</ele>
<time>2026-09-04T06:47:33Z</time>
</trkpt>
<trkpt lat="46.549200000" lon="-71.952300000">
<ele>0</ele>
<time>2026-09-04T06:47:34Z</time>
</trkpt>
<trkpt lat="46.549380000" lon="-71.953530000">
<ele>0</ele>
<time>2026-09-04T06:47:35Z</time>
</trkpt>
<trkpt lat="46.549470000" lon="-71.954270000">
<ele>0</ele>
<time>2026-09-04T06:47:36Z</time>
</trkpt>
<trkpt lat="46.549530000" lon="-71.955040000">
<ele>0</ele>
<time>2026-09-04T06:47:37Z</time>
</trkpt>
<trkpt lat="46.549590000" lon="-71.956050000">
<ele>0</ele>
<time>2026-09-04T06:47:38Z</time>
</trkpt>
<trkpt lat="46.549650000" lon="-71.957480000">
<ele>0</ele>
<time>2026-09-04T06:47:39Z</time>
</trkpt>
<trkpt lat="46.549820000" lon="-71.961050000">
<ele>0</ele>
<time>2026-09-04T06:47:40Z</time>
</trkpt>
<trkpt lat="46.549980000" lon="-71.963960000">
<ele>0</ele>
<time>2026-09-04T06:47:41Z</time>
</trkpt>
<trkpt lat="46.550030000" lon="-71.964840000">
<ele>0</ele>
<time>2026-09-04T06:47:42Z</time>
</trkpt>
<trkpt lat="46.550220000" lon="-71.966650000">
<ele>0</ele>
<time>2026-09-04T06:47:43Z</time>
</trkpt>
<trkpt lat="46.549500000" lon="-71.966650000">
<ele>0</ele>
<time>2026-09-04T06:47:44Z</time>
</trkpt>
<trkpt lat="46.548960000" lon="-71.966650000">
<ele>0</ele>
<time>2026-09-04T06:47:45Z</time>
</trkpt>
<trkpt lat="46.548060000" lon="-71.966650000">
<ele>0</ele>
<time>2026-09-04T06:47:46Z</time>
</trkpt>
<trkpt lat="46.547500000" lon="-71.966640000">
<ele>0</ele>
<time>2026-09-04T06:47:47Z</time>
</trkpt>
<trkpt lat="46.547500000" lon="-71.966640000">
<ele>0</ele>
<time>2026-09-04T06:47:48Z</time>
</trkpt>
<trkpt lat="46.545360000" lon="-71.966630000">
<ele>0</ele>
<time>2026-09-04T06:47:49Z</time>
</trkpt>
<trkpt lat="46.543380000" lon="-71.966530000">
<ele>0</ele>
<time>2026-09-04T06:47:50Z</time>
</trkpt>
<trkpt lat="46.540150000" lon="-71.966370000">
<ele>0</ele>
<time>2026-09-04T06:47:51Z</time>
</trkpt>
<trkpt lat="46.535650000" lon="-71.966140000">
<ele>0</ele>
<time>2026-09-04T06:47:52Z</time>
</trkpt>
<trkpt lat="46.534870000" lon="-71.966100000">
<ele>0</ele>
<time>2026-09-04T06:47:53Z</time>
</trkpt>
<trkpt lat="46.534650000" lon="-71.967370000">
<ele>0</ele>
<time>2026-09-04T06:47:54Z</time>
</trkpt>
<trkpt lat="46.534530000" lon="-71.968060000">
<ele>0</ele>
<time>2026-09-04T06:47:55Z</time>
</trkpt>
<trkpt lat="46.534530000" lon="-71.968060000">
<ele>0</ele>
<time>2026-09-04T06:47:56Z</time>
</trkpt>
<trkpt lat="46.534020000" lon="-71.970910000">
<ele>0</ele>
<time>2026-09-04T06:47:57Z</time>
</trkpt>
<trkpt lat="46.533450000" lon="-71.973940000">
<ele>0</ele>
<time>2026-09-04T06:47:58Z</time>
</trkpt>
<trkpt lat="46.533080000" lon="-71.975690000">
<ele>0</ele>
<time>2026-09-04T06:47:59Z</time>
</trkpt>
<trkpt lat="46.532870000" lon="-71.976690000">
<ele>0</ele>
<time>2026-09-04T06:48:00Z</time>
</trkpt>
<trkpt lat="46.532570000" lon="-71.977920000">
<ele>0</ele>
<time>2026-09-04T06:48:01Z</time>
</trkpt>
<trkpt lat="46.532040000" lon="-71.980140000">
<ele>0</ele>
<time>2026-09-04T06:48:02Z</time>
</trkpt>
<trkpt lat="46.531570000" lon="-71.982120000">
<ele>0</ele>
<time>2026-09-04T06:48:03Z</time>
</trkpt>
<trkpt lat="46.530990000" lon="-71.984600000">
<ele>0</ele>
<time>2026-09-04T06:48:04Z</time>
</trkpt>
<trkpt lat="46.530800000" lon="-71.985440000">
<ele>0</ele>
<time>2026-09-04T06:48:05Z</time>
</trkpt>
<trkpt lat="46.530250000" lon="-71.985500000">
<ele>0</ele>
<time>2026-09-04T06:48:06Z</time>
</trkpt>
<trkpt lat="46.529890000" lon="-71.985540000">
<ele>0</ele>
<time>2026-09-04T06:48:07Z</time>
</trkpt>
<trkpt lat="46.528640000" lon="-71.985690000">
<ele>0</ele>
<time>2026-09-04T06:48:08Z</time>
</trkpt>
<trkpt lat="46.527560000" lon="-71.985810000">
<ele>0</ele>
<time>2026-09-04T06:48:09Z</time>
</trkpt>
<trkpt lat="46.527200000" lon="-71.985850000">
<ele>0</ele>
<time>2026-09-04T06:48:10Z</time>
</trkpt>
<trkpt lat="46.527080000" lon="-71.985900000">
<ele>0</ele>
<time>2026-09-04T06:48:11Z</time>
</trkpt>
<trkpt lat="46.526980000" lon="-71.985950000">
<ele>0</ele>
<time>2026-09-04T06:48:12Z</time>
</trkpt>
<trkpt lat="46.526870000" lon="-71.986050000">
<ele>0</ele>
<time>2026-09-04T06:48:13Z</time>
</trkpt>
<trkpt lat="46.526570000" lon="-71.986420000">
<ele>0</ele>
<time>2026-09-04T06:48:14Z</time>
</trkpt>
<trkpt lat="46.525770000" lon="-71.987760000">
<ele>0</ele>
<time>2026-09-04T06:48:15Z</time>
</trkpt>
<trkpt lat="46.524000000" lon="-71.990720000">
<ele>0</ele>
<time>2026-09-04T06:48:16Z</time>
</trkpt>
<trkpt lat="46.523690000" lon="-71.991100000">
<ele>0</ele>
<time>2026-09-04T06:48:17Z</time>
</trkpt>
<trkpt lat="46.523300000" lon="-71.991540000">
<ele>0</ele>
<time>2026-09-04T06:48:18Z</time>
</trkpt>
<trkpt lat="46.522750000" lon="-71.992210000">
<ele>0</ele>
<time>2026-09-04T06:48:19Z</time>
</trkpt>
<trkpt lat="46.522510000" lon="-71.992500000">
<ele>0</ele>
<time>2026-09-04T06:48:20Z</time>
</trkpt>
<trkpt lat="46.521560000" lon="-71.993820000">
<ele>0</ele>
<time>2026-09-04T06:48:21Z</time>
</trkpt>
<trkpt lat="46.520920000" lon="-71.994720000">
<ele>0</ele>
<time>2026-09-04T06:48:22Z</time>
</trkpt>
<trkpt lat="46.520710000" lon="-71.995060000">
<ele>0</ele>
<time>2026-09-04T06:48:23Z</time>
</trkpt>
<trkpt lat="46.520260000" lon="-71.996200000">
<ele>0</ele>
<time>2026-09-04T06:48:24Z</time>
</trkpt>
<trkpt lat="46.520120000" lon="-71.996460000">
<ele>0</ele>
<time>2026-09-04T06:48:25Z</time>
</trkpt>
<trkpt lat="46.520000000" lon="-71.996680000">
<ele>0</ele>
<time>2026-09-04T06:48:26Z</time>
</trkpt>
<trkpt lat="46.518640000" lon="-71.998730000">
<ele>0</ele>
<time>2026-09-04T06:48:27Z</time>
</trkpt>
<trkpt lat="46.518390000" lon="-71.999110000">
<ele>0</ele>
<time>2026-09-04T06:48:28Z</time>
</trkpt>
<trkpt lat="46.517520000" lon="-72.000440000">
<ele>0</ele>
<time>2026-09-04T06:48:29Z</time>
</trkpt>
<trkpt lat="46.516160000" lon="-72.002520000">
<ele>0</ele>
<time>2026-09-04T06:48:30Z</time>
</trkpt>
<trkpt lat="46.513160000" lon="-72.007030000">
<ele>0</ele>
<time>2026-09-04T06:48:31Z</time>
</trkpt>
<trkpt lat="46.509020000" lon="-72.013220000">
<ele>0</ele>
<time>2026-09-04T06:48:32Z</time>
</trkpt>
<trkpt lat="46.507020000" lon="-72.016220000">
<ele>0</ele>
<time>2026-09-04T06:48:33Z</time>
</trkpt>
<trkpt lat="46.506510000" lon="-72.017060000">
<ele>0</ele>
<time>2026-09-04T06:48:34Z</time>
</trkpt>
<trkpt lat="46.505170000" lon="-72.019490000">
<ele>0</ele>
<time>2026-09-04T06:48:35Z</time>
</trkpt>
<trkpt lat="46.504590000" lon="-72.020550000">
<ele>0</ele>
<time>2026-09-04T06:48:36Z</time>
</trkpt>
<trkpt lat="46.504260000" lon="-72.021180000">
<ele>0</ele>
<time>2026-09-04T06:48:37Z</time>
</trkpt>
<trkpt lat="46.503910000" lon="-72.021840000">
<ele>0</ele>
<time>2026-09-04T06:48:38Z</time>
</trkpt>
<trkpt lat="46.503690000" lon="-72.022190000">
<ele>0</ele>
<time>2026-09-04T06:48:39Z</time>
</trkpt>
<trkpt lat="46.503550000" lon="-72.022420000">
<ele>0</ele>
<time>2026-09-04T06:48:40Z</time>
</trkpt>
<trkpt lat="46.503300000" lon="-72.022830000">
<ele>0</ele>
<time>2026-09-04T06:48:41Z</time>
</trkpt>
<trkpt lat="46.502970000" lon="-72.023290000">
<ele>0</ele>
<time>2026-09-04T06:48:42Z</time>
</trkpt>
<trkpt lat="46.501980000" lon="-72.024400000">
<ele>0</ele>
<time>2026-09-04T06:48:43Z</time>
</trkpt>
<trkpt lat="46.501490000" lon="-72.024840000">
<ele>0</ele>
<time>2026-09-04T06:48:44Z</time>
</trkpt>
<trkpt lat="46.500530000" lon="-72.025700000">
<ele>0</ele>
<time>2026-09-04T06:48:45Z</time>
</trkpt>
<trkpt lat="46.499880000" lon="-72.026260000">
<ele>0</ele>
<time>2026-09-04T06:48:46Z</time>
</trkpt>
<trkpt lat="46.499370000" lon="-72.026700000">
<ele>0</ele>
<time>2026-09-04T06:48:47Z</time>
</trkpt>
<trkpt lat="46.498820000" lon="-72.027370000">
<ele>0</ele>
<time>2026-09-04T06:48:48Z</time>
</trkpt>
<trkpt lat="46.498570000" lon="-72.027750000">
<ele>0</ele>
<time>2026-09-04T06:48:49Z</time>
</trkpt>
<trkpt lat="46.498380000" lon="-72.028030000">
<ele>0</ele>
<time>2026-09-04T06:48:50Z</time>
</trkpt>
<trkpt lat="46.498230000" lon="-72.028350000">
<ele>0</ele>
<time>2026-09-04T06:48:51Z</time>
</trkpt>
<trkpt lat="46.498130000" lon="-72.028630000">
<ele>0</ele>
<time>2026-09-04T06:48:52Z</time>
</trkpt>
<trkpt lat="46.498020000" lon="-72.029060000">
<ele>0</ele>
<time>2026-09-04T06:48:53Z</time>
</trkpt>
<trkpt lat="46.497920000" lon="-72.029580000">
<ele>0</ele>
<time>2026-09-04T06:48:54Z</time>
</trkpt>
<trkpt lat="46.497410000" lon="-72.031810000">
<ele>0</ele>
<time>2026-09-04T06:48:55Z</time>
</trkpt>
<trkpt lat="46.497580000" lon="-72.032040000">
<ele>0</ele>
<time>2026-09-04T06:48:56Z</time>
</trkpt>
<trkpt lat="46.497650000" lon="-72.032140000">
<ele>0</ele>
<time>2026-09-04T06:48:57Z</time>
</trkpt>
<trkpt lat="46.497430000" lon="-72.032750000">
<ele>0</ele>
<time>2026-09-04T06:48:58Z</time>
</trkpt>
<trkpt lat="46.497340000" lon="-72.032980000">
<ele>0</ele>
<time>2026-09-04T06:48:59Z</time>
</trkpt>
<trkpt lat="46.497020000" lon="-72.033960000">
<ele>0</ele>
<time>2026-09-04T06:49:00Z</time>
</trkpt>
<trkpt lat="46.497020000" lon="-72.033960000">
<ele>0</ele>
<time>2026-09-04T06:49:01Z</time>
</trkpt>
<trkpt lat="46.496670000" lon="-72.035120000">
<ele>0</ele>
<time>2026-09-04T06:49:02Z</time>
</trkpt>
<trkpt lat="46.496100000" lon="-72.037040000">
<ele>0</ele>
<time>2026-09-04T06:49:03Z</time>
</trkpt>
<trkpt lat="46.496600000" lon="-72.037790000">
<ele>0</ele>
<time>2026-09-04T06:49:04Z</time>
</trkpt>
<trkpt lat="46.497730000" lon="-72.039470000">
<ele>0</ele>
<time>2026-09-04T06:49:05Z</time>
</trkpt>
<trkpt lat="46.498350000" lon="-72.040420000">
<ele>0</ele>
<time>2026-09-04T06:49:06Z</time>
</trkpt>
<trkpt lat="46.499800000" lon="-72.042700000">
<ele>0</ele>
<time>2026-09-04T06:49:07Z</time>
</trkpt>
<trkpt lat="46.501090000" lon="-72.044560000">
<ele>0</ele>
<time>2026-09-04T06:49:08Z</time>
</trkpt>
<trkpt lat="46.504370000" lon="-72.049310000">
<ele>0</ele>
<time>2026-09-04T06:49:09Z</time>
</trkpt>
<trkpt lat="46.505830000" lon="-72.051340000">
<ele>0</ele>
<time>2026-09-04T06:49:10Z</time>
</trkpt>
<trkpt lat="46.508600000" lon="-72.055210000">
<ele>0</ele>
<time>2026-09-04T06:49:11Z</time>
</trkpt>
<trkpt lat="46.508690000" lon="-72.055450000">
<ele>0</ele>
<time>2026-09-04T06:49:12Z</time>
</trkpt>
<trkpt lat="46.509210000" lon="-72.056180000">
<ele>0</ele>
<time>2026-09-04T06:49:13Z</time>
</trkpt>
<trkpt lat="46.509860000" lon="-72.057080000">
<ele>0</ele>
<time>2026-09-04T06:49:14Z</time>
</trkpt>
<trkpt lat="46.511670000" lon="-72.059620000">
<ele>0</ele>
<time>2026-09-04T06:49:15Z</time>
</trkpt>
<trkpt lat="46.514650000" lon="-72.063790000">
<ele>0</ele>
<time>2026-09-04T06:49:16Z</time>
</trkpt>
<trkpt lat="46.516610000" lon="-72.066490000">
<ele>0</ele>
<time>2026-09-04T06:49:17Z</time>
</trkpt>
<trkpt lat="46.517390000" lon="-72.067560000">
<ele>0</ele>
<time>2026-09-04T06:49:18Z</time>
</trkpt>
<trkpt lat="46.517980000" lon="-72.066150000">
<ele>0</ele>
<time>2026-09-04T06:49:19Z</time>
</trkpt>
<trkpt lat="46.519100000" lon="-72.067700000">
<ele>0</ele>
<time>2026-09-04T06:49:20Z</time>
</trkpt>
<trkpt lat="46.519100000" lon="-72.067700000">
<ele>0</ele>
<time>2026-09-04T06:49:21Z</time>
</trkpt>
<trkpt lat="46.519330000" lon="-72.068010000">
<ele>0</ele>
<time>2026-09-04T06:49:22Z</time>
</trkpt>
<trkpt lat="46.520050000" lon="-72.066920000">
<ele>0</ele>
<time>2026-09-04T06:49:23Z</time>
</trkpt>
<trkpt lat="46.520550000" lon="-72.066170000">
<ele>0</ele>
<time>2026-09-04T06:49:24Z</time>
</trkpt>
<trkpt lat="46.520780000" lon="-72.066480000">
<ele>0</ele>
<time>2026-09-04T06:49:25Z</time>
</trkpt>
<trkpt lat="46.520780000" lon="-72.066480000">
<ele>0</ele>
<time>2026-09-04T06:49:26Z</time>
</trkpt>
<trkpt lat="46.523890000" lon="-72.070800000">
<ele>0</ele>
<time>2026-09-04T06:49:27Z</time>
</trkpt>
<trkpt lat="46.524860000" lon="-72.072130000">
<ele>0</ele>
<time>2026-09-04T06:49:28Z</time>
</trkpt>
<trkpt lat="46.526460000" lon="-72.074290000">
<ele>0</ele>
<time>2026-09-04T06:49:29Z</time>
</trkpt>
<trkpt lat="46.526950000" lon="-72.074970000">
<ele>0</ele>
<time>2026-09-04T06:49:30Z</time>
</trkpt>
<trkpt lat="46.528650000" lon="-72.077300000">
<ele>0</ele>
<time>2026-09-04T06:49:31Z</time>
</trkpt>
<trkpt lat="46.531400000" lon="-72.081060000">
<ele>0</ele>
<time>2026-09-04T06:49:32Z</time>
</trkpt>
<trkpt lat="46.531800000" lon="-72.081590000">
<ele>0</ele>
<time>2026-09-04T06:49:33Z</time>
</trkpt>
<trkpt lat="46.533360000" lon="-72.083760000">
<ele>0</ele>
<time>2026-09-04T06:49:34Z</time>
</trkpt>
<trkpt lat="46.534160000" lon="-72.084860000">
<ele>0</ele>
<time>2026-09-04T06:49:35Z</time>
</trkpt>
<trkpt lat="46.534670000" lon="-72.085570000">
<ele>0</ele>
<time>2026-09-04T06:49:36Z</time>
</trkpt>
<trkpt lat="46.534670000" lon="-72.085570000">
<ele>0</ele>
<time>2026-09-04T06:49:37Z</time>
</trkpt>
<trkpt lat="46.535200000" lon="-72.086300000">
<ele>0</ele>
<time>2026-09-04T06:49:38Z</time>
</trkpt>
<trkpt lat="46.535620000" lon="-72.086820000">
<ele>0</ele>
<time>2026-09-04T06:49:39Z</time>
</trkpt>
<trkpt lat="46.536000000" lon="-72.087260000">
<ele>0</ele>
<time>2026-09-04T06:49:40Z</time>
</trkpt>
<trkpt lat="46.536000000" lon="-72.087260000">
<ele>0</ele>
<time>2026-09-04T06:49:41Z</time>
</trkpt>
<trkpt lat="46.536580000" lon="-72.087800000">
<ele>0</ele>
<time>2026-09-04T06:49:42Z</time>
</trkpt>
<trkpt lat="46.537280000" lon="-72.088300000">
<ele>0</ele>
<time>2026-09-04T06:49:43Z</time>
</trkpt>
<trkpt lat="46.538430000" lon="-72.089090000">
<ele>0</ele>
<time>2026-09-04T06:49:44Z</time>
</trkpt>
<trkpt lat="46.538720000" lon="-72.089310000">
<ele>0</ele>
<time>2026-09-04T06:49:45Z</time>
</trkpt>
<trkpt lat="46.539180000" lon="-72.089790000">
<ele>0</ele>
<time>2026-09-04T06:49:46Z</time>
</trkpt>
<trkpt lat="46.539880000" lon="-72.090620000">
<ele>0</ele>
<time>2026-09-04T06:49:47Z</time>
</trkpt>
<trkpt lat="46.541290000" lon="-72.092480000">
<ele>0</ele>
<time>2026-09-04T06:49:48Z</time>
</trkpt>
<trkpt lat="46.544050000" lon="-72.096130000">
<ele>0</ele>
<time>2026-09-04T06:49:49Z</time>
</trkpt>
<trkpt lat="46.547200000" lon="-72.100330000">
<ele>0</ele>
<time>2026-09-04T06:49:50Z</time>
</trkpt>
<trkpt lat="46.548000000" lon="-72.101400000">
<ele>0</ele>
<time>2026-09-04T06:49:51Z</time>
</trkpt>
<trkpt lat="46.549360000" lon="-72.103220000">
<ele>0</ele>
<time>2026-09-04T06:49:52Z</time>
</trkpt>
<trkpt lat="46.551550000" lon="-72.106120000">
<ele>0</ele>
<time>2026-09-04T06:49:53Z</time>
</trkpt>
<trkpt lat="46.554180000" lon="-72.109570000">
<ele>0</ele>
<time>2026-09-04T06:49:54Z</time>
</trkpt>
<trkpt lat="46.554180000" lon="-72.109570000">
<ele>0</ele>
<time>2026-09-04T06:49:55Z</time>
</trkpt>
<trkpt lat="46.555500000" lon="-72.111350000">
<ele>0</ele>
<time>2026-09-04T06:49:56Z</time>
</trkpt>
<trkpt lat="46.556060000" lon="-72.112090000">
<ele>0</ele>
<time>2026-09-04T06:49:57Z</time>
</trkpt>
<trkpt lat="46.556830000" lon="-72.113150000">
<ele>0</ele>
<time>2026-09-04T06:49:58Z</time>
</trkpt>
<trkpt lat="46.557310000" lon="-72.113820000">
<ele>0</ele>
<time>2026-09-04T06:49:59Z</time>
</trkpt>
<trkpt lat="46.556970000" lon="-72.114340000">
<ele>0</ele>
<time>2026-09-04T06:50:00Z</time>
</trkpt>
<trkpt lat="46.556430000" lon="-72.115200000">
<ele>0</ele>
<time>2026-09-04T06:50:01Z</time>
</trkpt>
<trkpt lat="46.556220000" lon="-72.115670000">
<ele>0</ele>
<time>2026-09-04T06:50:02Z</time>
</trkpt>
<trkpt lat="46.556220000" lon="-72.115670000">
<ele>0</ele>
<time>2026-09-04T06:50:03Z</time>
</trkpt>
<trkpt lat="46.556140000" lon="-72.115900000">
<ele>0</ele>
<time>2026-09-04T06:50:04Z</time>
</trkpt>
</trkseg>
</trk>
</gpx>
